<?xml version="1.0" encoding="UTF-8" standalone="no" ?>
<gpx xmlns="http://www.topografix.com/GPX/1/1" xmlns:xsi="http://www.w3.org/2001/XMLSchema-instance" xsi:schemaLocation="http://www.topografix.com/GPX/1/1 http://www.topografix.com/GPX/1/1/gpx.xsd" version="1.1" creator="VisuGPX - https://www.visugpx.com">
  <metadata>
    <name>pr9 bis la broe /vallee de la salinette/variante le serre rouveyrol</name>
    <desc><![CDATA[nettoyage du point k jusqu\'au issarteaux  prévoir tronçonneuse et voir balisage]]></desc>
  </metadata>
  <trk>
    <name><![CDATA[Tracé 23 nov. 2015 08:53:44]]></name>
    <trkseg>
      <trkpt lat="44.99494" lon="4.51821">
        <ele>-66</ele>
        <time>2015-11-23T07:53:44Z</time>
      </trkpt>
      <trkpt lat="44.99494" lon="4.51821">
        <ele>-66</ele>
        <time>2015-11-23T07:54:01Z</time>
      </trkpt>
      <trkpt lat="44.99363" lon="4.5171">
        <ele>197</ele>
        <time>2015-11-23T07:54:06Z</time>
      </trkpt>
      <trkpt lat="44.99347" lon="4.51715">
        <ele>245</ele>
        <time>2015-11-23T07:54:11Z</time>
      </trkpt>
      <trkpt lat="44.99333" lon="4.51728">
        <ele>262</ele>
        <time>2015-11-23T07:54:15Z</time>
      </trkpt>
      <trkpt lat="44.99334" lon="4.51718">
        <ele>392</ele>
        <time>2015-11-23T07:54:24Z</time>
      </trkpt>
      <trkpt lat="44.9933" lon="4.51707">
        <ele>399</ele>
        <time>2015-11-23T07:54:30Z</time>
      </trkpt>
      <trkpt lat="44.99326" lon="4.51697">
        <ele>403</ele>
        <time>2015-11-23T07:54:35Z</time>
      </trkpt>
      <trkpt lat="44.99321" lon="4.51689">
        <ele>403</ele>
        <time>2015-11-23T07:54:41Z</time>
      </trkpt>
      <trkpt lat="44.99315" lon="4.5168">
        <ele>402</ele>
        <time>2015-11-23T07:54:51Z</time>
      </trkpt>
      <trkpt lat="44.99307" lon="4.51681">
        <ele>408</ele>
        <time>2015-11-23T07:55:00Z</time>
      </trkpt>
      <trkpt lat="44.99299" lon="4.51683">
        <ele>412</ele>
        <time>2015-11-23T07:55:07Z</time>
      </trkpt>
      <trkpt lat="44.99291" lon="4.51684">
        <ele>414</ele>
        <time>2015-11-23T07:55:15Z</time>
      </trkpt>
      <trkpt lat="44.99282" lon="4.51685">
        <ele>416</ele>
        <time>2015-11-23T07:55:23Z</time>
      </trkpt>
      <trkpt lat="44.99274" lon="4.5168">
        <ele>417</ele>
        <time>2015-11-23T07:55:29Z</time>
      </trkpt>
      <trkpt lat="44.99267" lon="4.51679">
        <ele>417</ele>
        <time>2015-11-23T07:55:33Z</time>
      </trkpt>
      <trkpt lat="44.99261" lon="4.51678">
        <ele>418</ele>
        <time>2015-11-23T07:55:36Z</time>
      </trkpt>
      <trkpt lat="44.99251" lon="4.51677">
        <ele>418</ele>
        <time>2015-11-23T07:55:40Z</time>
      </trkpt>
      <trkpt lat="44.99243" lon="4.51678">
        <ele>418</ele>
        <time>2015-11-23T07:55:44Z</time>
      </trkpt>
      <trkpt lat="44.99238" lon="4.51676">
        <ele>418</ele>
        <time>2015-11-23T07:55:47Z</time>
      </trkpt>
      <trkpt lat="44.99229" lon="4.51674">
        <ele>418</ele>
        <time>2015-11-23T07:55:51Z</time>
      </trkpt>
      <trkpt lat="44.99221" lon="4.51671">
        <ele>419</ele>
        <time>2015-11-23T07:55:56Z</time>
      </trkpt>
      <trkpt lat="44.99209" lon="4.51667">
        <ele>419</ele>
        <time>2015-11-23T07:56:00Z</time>
      </trkpt>
      <trkpt lat="44.99197" lon="4.51661">
        <ele>420</ele>
        <time>2015-11-23T07:56:05Z</time>
      </trkpt>
      <trkpt lat="44.99188" lon="4.51657">
        <ele>420</ele>
        <time>2015-11-23T07:56:09Z</time>
      </trkpt>
      <trkpt lat="44.9918" lon="4.5165">
        <ele>420</ele>
        <time>2015-11-23T07:56:12Z</time>
      </trkpt>
      <trkpt lat="44.99171" lon="4.51648">
        <ele>420</ele>
        <time>2015-11-23T07:56:16Z</time>
      </trkpt>
      <trkpt lat="44.99162" lon="4.51645">
        <ele>421</ele>
        <time>2015-11-23T07:56:20Z</time>
      </trkpt>
      <trkpt lat="44.99152" lon="4.51642">
        <ele>421</ele>
        <time>2015-11-23T07:56:25Z</time>
      </trkpt>
      <trkpt lat="44.99141" lon="4.51637">
        <ele>421</ele>
        <time>2015-11-23T07:56:28Z</time>
      </trkpt>
      <trkpt lat="44.99131" lon="4.51636">
        <ele>421</ele>
        <time>2015-11-23T07:56:32Z</time>
      </trkpt>
      <trkpt lat="44.9912" lon="4.51634">
        <ele>421</ele>
        <time>2015-11-23T07:56:37Z</time>
      </trkpt>
      <trkpt lat="44.99113" lon="4.51632">
        <ele>421</ele>
        <time>2015-11-23T07:56:42Z</time>
      </trkpt>
      <trkpt lat="44.99095" lon="4.51625">
        <ele>422</ele>
        <time>2015-11-23T07:56:47Z</time>
      </trkpt>
      <trkpt lat="44.99081" lon="4.51625">
        <ele>422</ele>
        <time>2015-11-23T07:56:52Z</time>
      </trkpt>
      <trkpt lat="44.99073" lon="4.51626">
        <ele>422</ele>
        <time>2015-11-23T07:56:55Z</time>
      </trkpt>
      <trkpt lat="44.99065" lon="4.51622">
        <ele>423</ele>
        <time>2015-11-23T07:56:58Z</time>
      </trkpt>
      <trkpt lat="44.99062" lon="4.5162">
        <ele>423</ele>
        <time>2015-11-23T07:57:00Z</time>
      </trkpt>
      <trkpt lat="44.99046" lon="4.51611">
        <ele>424</ele>
        <time>2015-11-23T07:57:05Z</time>
      </trkpt>
      <trkpt lat="44.99042" lon="4.5161">
        <ele>424</ele>
        <time>2015-11-23T07:57:07Z</time>
      </trkpt>
      <trkpt lat="44.99032" lon="4.51598">
        <ele>424</ele>
        <time>2015-11-23T07:57:12Z</time>
      </trkpt>
      <trkpt lat="44.99023" lon="4.51587">
        <ele>424</ele>
        <time>2015-11-23T07:57:17Z</time>
      </trkpt>
      <trkpt lat="44.99015" lon="4.51582">
        <ele>423</ele>
        <time>2015-11-23T07:57:21Z</time>
      </trkpt>
      <trkpt lat="44.99008" lon="4.51577">
        <ele>423</ele>
        <time>2015-11-23T07:57:25Z</time>
      </trkpt>
      <trkpt lat="44.98999" lon="4.51565">
        <ele>423</ele>
        <time>2015-11-23T07:57:29Z</time>
      </trkpt>
      <trkpt lat="44.98989" lon="4.51558">
        <ele>422</ele>
        <time>2015-11-23T07:57:34Z</time>
      </trkpt>
      <trkpt lat="44.98982" lon="4.51555">
        <ele>422</ele>
        <time>2015-11-23T07:57:37Z</time>
      </trkpt>
      <trkpt lat="44.98962" lon="4.51539">
        <ele>419</ele>
        <time>2015-11-23T07:57:45Z</time>
      </trkpt>
      <trkpt lat="44.98953" lon="4.51538">
        <ele>418</ele>
        <time>2015-11-23T07:57:50Z</time>
      </trkpt>
      <trkpt lat="44.9895" lon="4.51538">
        <ele>418</ele>
        <time>2015-11-23T07:57:57Z</time>
      </trkpt>
      <trkpt lat="44.98932" lon="4.51517">
        <ele>416</ele>
        <time>2015-11-23T07:58:00Z</time>
      </trkpt>
      <trkpt lat="44.98925" lon="4.5151">
        <ele>415</ele>
        <time>2015-11-23T07:58:05Z</time>
      </trkpt>
      <trkpt lat="44.9892" lon="4.51502">
        <ele>414</ele>
        <time>2015-11-23T07:58:19Z</time>
      </trkpt>
      <trkpt lat="44.98909" lon="4.51464">
        <ele>413</ele>
        <time>2015-11-23T07:58:23Z</time>
      </trkpt>
      <trkpt lat="44.98909" lon="4.51452">
        <ele>412</ele>
        <time>2015-11-23T07:58:28Z</time>
      </trkpt>
      <trkpt lat="44.98908" lon="4.5144">
        <ele>412</ele>
        <time>2015-11-23T07:58:33Z</time>
      </trkpt>
      <trkpt lat="44.98909" lon="4.5143">
        <ele>412</ele>
        <time>2015-11-23T07:58:38Z</time>
      </trkpt>
      <trkpt lat="44.98908" lon="4.51419">
        <ele>413</ele>
        <time>2015-11-23T07:58:45Z</time>
      </trkpt>
      <trkpt lat="44.98904" lon="4.51405">
        <ele>414</ele>
        <time>2015-11-23T07:58:50Z</time>
      </trkpt>
      <trkpt lat="44.98899" lon="4.51397">
        <ele>414</ele>
        <time>2015-11-23T07:58:55Z</time>
      </trkpt>
      <trkpt lat="44.98894" lon="4.51388">
        <ele>415</ele>
        <time>2015-11-23T07:58:59Z</time>
      </trkpt>
      <trkpt lat="44.98888" lon="4.51381">
        <ele>415</ele>
        <time>2015-11-23T07:59:07Z</time>
      </trkpt>
      <trkpt lat="44.98881" lon="4.51375">
        <ele>415</ele>
        <time>2015-11-23T07:59:14Z</time>
      </trkpt>
      <trkpt lat="44.98879" lon="4.51372">
        <ele>415</ele>
        <time>2015-11-23T07:59:16Z</time>
      </trkpt>
      <trkpt lat="44.98875" lon="4.51365">
        <ele>415</ele>
        <time>2015-11-23T07:59:21Z</time>
      </trkpt>
      <trkpt lat="44.9887" lon="4.51355">
        <ele>416</ele>
        <time>2015-11-23T07:59:29Z</time>
      </trkpt>
      <trkpt lat="44.98864" lon="4.51347">
        <ele>416</ele>
        <time>2015-11-23T07:59:34Z</time>
      </trkpt>
      <trkpt lat="44.98863" lon="4.51338">
        <ele>418</ele>
        <time>2015-11-23T07:59:39Z</time>
      </trkpt>
      <trkpt lat="44.98859" lon="4.51327">
        <ele>420</ele>
        <time>2015-11-23T07:59:45Z</time>
      </trkpt>
      <trkpt lat="44.98856" lon="4.51318">
        <ele>426</ele>
        <time>2015-11-23T08:00:05Z</time>
      </trkpt>
      <trkpt lat="44.98852" lon="4.51311">
        <ele>428</ele>
        <time>2015-11-23T08:00:10Z</time>
      </trkpt>
      <trkpt lat="44.98847" lon="4.51301">
        <ele>429</ele>
        <time>2015-11-23T08:00:16Z</time>
      </trkpt>
      <trkpt lat="44.98841" lon="4.51284">
        <ele>431</ele>
        <time>2015-11-23T08:00:24Z</time>
      </trkpt>
      <trkpt lat="44.98835" lon="4.51271">
        <ele>433</ele>
        <time>2015-11-23T08:00:28Z</time>
      </trkpt>
      <trkpt lat="44.98836" lon="4.51259">
        <ele>435</ele>
        <time>2015-11-23T08:00:49Z</time>
      </trkpt>
      <trkpt lat="44.98837" lon="4.51248">
        <ele>437</ele>
        <time>2015-11-23T08:00:56Z</time>
      </trkpt>
      <trkpt lat="44.9883" lon="4.51242">
        <ele>438</ele>
        <time>2015-11-23T08:01:03Z</time>
      </trkpt>
      <trkpt lat="44.98826" lon="4.51237">
        <ele>439</ele>
        <time>2015-11-23T08:01:06Z</time>
      </trkpt>
      <trkpt lat="44.98821" lon="4.51238">
        <ele>440</ele>
        <time>2015-11-23T08:01:10Z</time>
      </trkpt>
      <trkpt lat="44.98811" lon="4.51237">
        <ele>442</ele>
        <time>2015-11-23T08:01:14Z</time>
      </trkpt>
      <trkpt lat="44.98799" lon="4.51236">
        <ele>444</ele>
        <time>2015-11-23T08:01:19Z</time>
      </trkpt>
      <trkpt lat="44.98791" lon="4.51227">
        <ele>445</ele>
        <time>2015-11-23T08:01:24Z</time>
      </trkpt>
      <trkpt lat="44.9879" lon="4.51217">
        <ele>446</ele>
        <time>2015-11-23T08:01:28Z</time>
      </trkpt>
      <trkpt lat="44.98791" lon="4.51207">
        <ele>447</ele>
        <time>2015-11-23T08:01:31Z</time>
      </trkpt>
      <trkpt lat="44.98796" lon="4.51199">
        <ele>447</ele>
        <time>2015-11-23T08:01:35Z</time>
      </trkpt>
      <trkpt lat="44.98803" lon="4.51192">
        <ele>448</ele>
        <time>2015-11-23T08:01:39Z</time>
      </trkpt>
      <trkpt lat="44.98811" lon="4.51186">
        <ele>448</ele>
        <time>2015-11-23T08:01:43Z</time>
      </trkpt>
      <trkpt lat="44.98818" lon="4.51177">
        <ele>448</ele>
        <time>2015-11-23T08:01:47Z</time>
      </trkpt>
      <trkpt lat="44.98827" lon="4.51168">
        <ele>449</ele>
        <time>2015-11-23T08:01:51Z</time>
      </trkpt>
      <trkpt lat="44.98828" lon="4.51157">
        <ele>452</ele>
        <time>2015-11-23T08:02:02Z</time>
      </trkpt>
      <trkpt lat="44.98819" lon="4.51153">
        <ele>453</ele>
        <time>2015-11-23T08:02:06Z</time>
      </trkpt>
      <trkpt lat="44.98814" lon="4.51149">
        <ele>453</ele>
        <time>2015-11-23T08:02:09Z</time>
      </trkpt>
      <trkpt lat="44.98805" lon="4.51139">
        <ele>454</ele>
        <time>2015-11-23T08:02:14Z</time>
      </trkpt>
      <trkpt lat="44.98799" lon="4.51131">
        <ele>454</ele>
        <time>2015-11-23T08:02:18Z</time>
      </trkpt>
      <trkpt lat="44.98794" lon="4.51122">
        <ele>455</ele>
        <time>2015-11-23T08:02:26Z</time>
      </trkpt>
      <trkpt lat="44.9879" lon="4.51129">
        <ele>458</ele>
        <time>2015-11-23T08:02:44Z</time>
      </trkpt>
      <trkpt lat="44.98785" lon="4.5114">
        <ele>459</ele>
        <time>2015-11-23T08:02:54Z</time>
      </trkpt>
      <trkpt lat="44.98779" lon="4.51146">
        <ele>460</ele>
        <time>2015-11-23T08:03:01Z</time>
      </trkpt>
      <trkpt lat="44.98772" lon="4.51152">
        <ele>461</ele>
        <time>2015-11-23T08:03:05Z</time>
      </trkpt>
      <trkpt lat="44.98764" lon="4.51155">
        <ele>461</ele>
        <time>2015-11-23T08:03:09Z</time>
      </trkpt>
      <trkpt lat="44.98757" lon="4.5116">
        <ele>462</ele>
        <time>2015-11-23T08:03:15Z</time>
      </trkpt>
      <trkpt lat="44.98749" lon="4.5116">
        <ele>464</ele>
        <time>2015-11-23T08:03:22Z</time>
      </trkpt>
      <trkpt lat="44.98744" lon="4.51154">
        <ele>464</ele>
        <time>2015-11-23T08:03:25Z</time>
      </trkpt>
      <trkpt lat="44.98738" lon="4.51154">
        <ele>465</ele>
        <time>2015-11-23T08:03:29Z</time>
      </trkpt>
      <trkpt lat="44.98731" lon="4.51154">
        <ele>465</ele>
        <time>2015-11-23T08:03:33Z</time>
      </trkpt>
      <trkpt lat="44.98723" lon="4.51155">
        <ele>466</ele>
        <time>2015-11-23T08:03:37Z</time>
      </trkpt>
      <trkpt lat="44.98715" lon="4.51156">
        <ele>466</ele>
        <time>2015-11-23T08:03:41Z</time>
      </trkpt>
      <trkpt lat="44.98706" lon="4.51156">
        <ele>467</ele>
        <time>2015-11-23T08:03:45Z</time>
      </trkpt>
      <trkpt lat="44.98698" lon="4.51154">
        <ele>468</ele>
        <time>2015-11-23T08:03:50Z</time>
      </trkpt>
      <trkpt lat="44.98687" lon="4.51151">
        <ele>469</ele>
        <time>2015-11-23T08:03:55Z</time>
      </trkpt>
      <trkpt lat="44.98677" lon="4.51153">
        <ele>471</ele>
        <time>2015-11-23T08:03:59Z</time>
      </trkpt>
      <trkpt lat="44.9867" lon="4.51154">
        <ele>472</ele>
        <time>2015-11-23T08:04:02Z</time>
      </trkpt>
      <trkpt lat="44.98662" lon="4.5115">
        <ele>473</ele>
        <time>2015-11-23T08:04:07Z</time>
      </trkpt>
      <trkpt lat="44.98657" lon="4.51141">
        <ele>475</ele>
        <time>2015-11-23T08:04:11Z</time>
      </trkpt>
      <trkpt lat="44.98653" lon="4.51132">
        <ele>476</ele>
        <time>2015-11-23T08:04:15Z</time>
      </trkpt>
      <trkpt lat="44.98652" lon="4.51122">
        <ele>477</ele>
        <time>2015-11-23T08:04:19Z</time>
      </trkpt>
      <trkpt lat="44.98651" lon="4.51109">
        <ele>478</ele>
        <time>2015-11-23T08:04:24Z</time>
      </trkpt>
      <trkpt lat="44.98648" lon="4.51099">
        <ele>479</ele>
        <time>2015-11-23T08:04:28Z</time>
      </trkpt>
      <trkpt lat="44.98643" lon="4.51085">
        <ele>481</ele>
        <time>2015-11-23T08:04:33Z</time>
      </trkpt>
      <trkpt lat="44.98638" lon="4.51076">
        <ele>482</ele>
        <time>2015-11-23T08:04:38Z</time>
      </trkpt>
      <trkpt lat="44.98634" lon="4.51065">
        <ele>484</ele>
        <time>2015-11-23T08:04:44Z</time>
      </trkpt>
      <trkpt lat="44.9863" lon="4.51052">
        <ele>486</ele>
        <time>2015-11-23T08:04:49Z</time>
      </trkpt>
      <trkpt lat="44.98628" lon="4.5104">
        <ele>487</ele>
        <time>2015-11-23T08:04:54Z</time>
      </trkpt>
      <trkpt lat="44.98627" lon="4.51032">
        <ele>488</ele>
        <time>2015-11-23T08:04:57Z</time>
      </trkpt>
      <trkpt lat="44.98625" lon="4.51022">
        <ele>490</ele>
        <time>2015-11-23T08:05:02Z</time>
      </trkpt>
      <trkpt lat="44.98623" lon="4.51012">
        <ele>494</ele>
        <time>2015-11-23T08:05:06Z</time>
      </trkpt>
      <trkpt lat="44.98624" lon="4.51">
        <ele>497</ele>
        <time>2015-11-23T08:05:13Z</time>
      </trkpt>
      <trkpt lat="44.98626" lon="4.5099">
        <ele>499</ele>
        <time>2015-11-23T08:05:19Z</time>
      </trkpt>
      <trkpt lat="44.98629" lon="4.50982">
        <ele>500</ele>
        <time>2015-11-23T08:05:23Z</time>
      </trkpt>
      <trkpt lat="44.98628" lon="4.50969">
        <ele>500</ele>
        <time>2015-11-23T08:05:27Z</time>
      </trkpt>
      <trkpt lat="44.98629" lon="4.50957">
        <ele>501</ele>
        <time>2015-11-23T08:05:31Z</time>
      </trkpt>
      <trkpt lat="44.98631" lon="4.50949">
        <ele>502</ele>
        <time>2015-11-23T08:05:34Z</time>
      </trkpt>
      <trkpt lat="44.98632" lon="4.50938">
        <ele>503</ele>
        <time>2015-11-23T08:05:38Z</time>
      </trkpt>
      <trkpt lat="44.98634" lon="4.50923">
        <ele>504</ele>
        <time>2015-11-23T08:05:43Z</time>
      </trkpt>
      <trkpt lat="44.98633" lon="4.50913">
        <ele>505</ele>
        <time>2015-11-23T08:05:46Z</time>
      </trkpt>
      <trkpt lat="44.98632" lon="4.50905">
        <ele>505</ele>
        <time>2015-11-23T08:05:49Z</time>
      </trkpt>
      <trkpt lat="44.98631" lon="4.50893">
        <ele>506</ele>
        <time>2015-11-23T08:05:53Z</time>
      </trkpt>
      <trkpt lat="44.98631" lon="4.50883">
        <ele>507</ele>
        <time>2015-11-23T08:05:56Z</time>
      </trkpt>
      <trkpt lat="44.98629" lon="4.50873">
        <ele>508</ele>
        <time>2015-11-23T08:06:01Z</time>
      </trkpt>
      <trkpt lat="44.98627" lon="4.50863">
        <ele>509</ele>
        <time>2015-11-23T08:06:06Z</time>
      </trkpt>
      <trkpt lat="44.98628" lon="4.50853">
        <ele>510</ele>
        <time>2015-11-23T08:06:10Z</time>
      </trkpt>
      <trkpt lat="44.9863" lon="4.50841">
        <ele>511</ele>
        <time>2015-11-23T08:06:15Z</time>
      </trkpt>
      <trkpt lat="44.98631" lon="4.5083">
        <ele>512</ele>
        <time>2015-11-23T08:06:19Z</time>
      </trkpt>
      <trkpt lat="44.98628" lon="4.50819">
        <ele>515</ele>
        <time>2015-11-23T08:06:28Z</time>
      </trkpt>
      <trkpt lat="44.98621" lon="4.50812">
        <ele>518</ele>
        <time>2015-11-23T08:06:36Z</time>
      </trkpt>
      <trkpt lat="44.98616" lon="4.50804">
        <ele>521</ele>
        <time>2015-11-23T08:06:43Z</time>
      </trkpt>
      <trkpt lat="44.98612" lon="4.50795">
        <ele>523</ele>
        <time>2015-11-23T08:06:48Z</time>
      </trkpt>
      <trkpt lat="44.98604" lon="4.50791">
        <ele>525</ele>
        <time>2015-11-23T08:06:55Z</time>
      </trkpt>
      <trkpt lat="44.98596" lon="4.50788">
        <ele>528</ele>
        <time>2015-11-23T08:07:02Z</time>
      </trkpt>
      <trkpt lat="44.98589" lon="4.50784">
        <ele>530</ele>
        <time>2015-11-23T08:07:09Z</time>
      </trkpt>
      <trkpt lat="44.98581" lon="4.50783">
        <ele>533</ele>
        <time>2015-11-23T08:07:17Z</time>
      </trkpt>
      <trkpt lat="44.98574" lon="4.50785">
        <ele>535</ele>
        <time>2015-11-23T08:07:22Z</time>
      </trkpt>
      <trkpt lat="44.98567" lon="4.50785">
        <ele>537</ele>
        <time>2015-11-23T08:07:28Z</time>
      </trkpt>
      <trkpt lat="44.98559" lon="4.50785">
        <ele>539</ele>
        <time>2015-11-23T08:07:35Z</time>
      </trkpt>
      <trkpt lat="44.98553" lon="4.50781">
        <ele>541</ele>
        <time>2015-11-23T08:07:40Z</time>
      </trkpt>
      <trkpt lat="44.98545" lon="4.50782">
        <ele>542</ele>
        <time>2015-11-23T08:07:45Z</time>
      </trkpt>
      <trkpt lat="44.98538" lon="4.5078">
        <ele>544</ele>
        <time>2015-11-23T08:07:50Z</time>
      </trkpt>
      <trkpt lat="44.9853" lon="4.50775">
        <ele>546</ele>
        <time>2015-11-23T08:07:55Z</time>
      </trkpt>
      <trkpt lat="44.98522" lon="4.50773">
        <ele>547</ele>
        <time>2015-11-23T08:07:59Z</time>
      </trkpt>
      <trkpt lat="44.98515" lon="4.50768">
        <ele>548</ele>
        <time>2015-11-23T08:08:03Z</time>
      </trkpt>
      <trkpt lat="44.98506" lon="4.50768">
        <ele>550</ele>
        <time>2015-11-23T08:08:07Z</time>
      </trkpt>
      <trkpt lat="44.98499" lon="4.50765">
        <ele>552</ele>
        <time>2015-11-23T08:08:12Z</time>
      </trkpt>
      <trkpt lat="44.98492" lon="4.50762">
        <ele>554</ele>
        <time>2015-11-23T08:08:18Z</time>
      </trkpt>
      <trkpt lat="44.98484" lon="4.5076">
        <ele>556</ele>
        <time>2015-11-23T08:08:24Z</time>
      </trkpt>
      <trkpt lat="44.98478" lon="4.50757">
        <ele>557</ele>
        <time>2015-11-23T08:08:28Z</time>
      </trkpt>
      <trkpt lat="44.9847" lon="4.50754">
        <ele>558</ele>
        <time>2015-11-23T08:08:33Z</time>
      </trkpt>
      <trkpt lat="44.98464" lon="4.50746">
        <ele>560</ele>
        <time>2015-11-23T08:08:40Z</time>
      </trkpt>
      <trkpt lat="44.98459" lon="4.50739">
        <ele>560</ele>
        <time>2015-11-23T08:08:43Z</time>
      </trkpt>
      <trkpt lat="44.98453" lon="4.50733">
        <ele>561</ele>
        <time>2015-11-23T08:08:48Z</time>
      </trkpt>
      <trkpt lat="44.98446" lon="4.50725">
        <ele>562</ele>
        <time>2015-11-23T08:08:53Z</time>
      </trkpt>
      <trkpt lat="44.98439" lon="4.50721">
        <ele>563</ele>
        <time>2015-11-23T08:08:58Z</time>
      </trkpt>
      <trkpt lat="44.9843" lon="4.50717">
        <ele>565</ele>
        <time>2015-11-23T08:09:04Z</time>
      </trkpt>
      <trkpt lat="44.98423" lon="4.50716">
        <ele>566</ele>
        <time>2015-11-23T08:09:12Z</time>
      </trkpt>
      <trkpt lat="44.98414" lon="4.50717">
        <ele>566</ele>
        <time>2015-11-23T08:09:17Z</time>
      </trkpt>
      <trkpt lat="44.98407" lon="4.50721">
        <ele>566</ele>
        <time>2015-11-23T08:09:21Z</time>
      </trkpt>
      <trkpt lat="44.98399" lon="4.50722">
        <ele>566</ele>
        <time>2015-11-23T08:09:26Z</time>
      </trkpt>
      <trkpt lat="44.98393" lon="4.50725">
        <ele>566</ele>
        <time>2015-11-23T08:09:29Z</time>
      </trkpt>
      <trkpt lat="44.98386" lon="4.50729">
        <ele>567</ele>
        <time>2015-11-23T08:09:33Z</time>
      </trkpt>
      <trkpt lat="44.98378" lon="4.50738">
        <ele>567</ele>
        <time>2015-11-23T08:09:37Z</time>
      </trkpt>
      <trkpt lat="44.98366" lon="4.50742">
        <ele>567</ele>
        <time>2015-11-23T08:09:42Z</time>
      </trkpt>
      <trkpt lat="44.98358" lon="4.50744">
        <ele>568</ele>
        <time>2015-11-23T08:09:47Z</time>
      </trkpt>
      <trkpt lat="44.98352" lon="4.5074">
        <ele>569</ele>
        <time>2015-11-23T08:09:51Z</time>
      </trkpt>
      <trkpt lat="44.98343" lon="4.50735">
        <ele>569</ele>
        <time>2015-11-23T08:09:56Z</time>
      </trkpt>
      <trkpt lat="44.98333" lon="4.50736">
        <ele>569</ele>
        <time>2015-11-23T08:10:01Z</time>
      </trkpt>
      <trkpt lat="44.98325" lon="4.50741">
        <ele>569</ele>
        <time>2015-11-23T08:10:06Z</time>
      </trkpt>
      <trkpt lat="44.98316" lon="4.50741">
        <ele>570</ele>
        <time>2015-11-23T08:10:13Z</time>
      </trkpt>
      <trkpt lat="44.98309" lon="4.50739">
        <ele>570</ele>
        <time>2015-11-23T08:10:19Z</time>
      </trkpt>
      <trkpt lat="44.98301" lon="4.50734">
        <ele>570</ele>
        <time>2015-11-23T08:10:27Z</time>
      </trkpt>
      <trkpt lat="44.98296" lon="4.50729">
        <ele>572</ele>
        <time>2015-11-23T08:10:35Z</time>
      </trkpt>
      <trkpt lat="44.98288" lon="4.50726">
        <ele>573</ele>
        <time>2015-11-23T08:10:39Z</time>
      </trkpt>
      <trkpt lat="44.98281" lon="4.5072">
        <ele>575</ele>
        <time>2015-11-23T08:10:48Z</time>
      </trkpt>
      <trkpt lat="44.98275" lon="4.50711">
        <ele>576</ele>
        <time>2015-11-23T08:10:55Z</time>
      </trkpt>
      <trkpt lat="44.98271" lon="4.50703">
        <ele>576</ele>
        <time>2015-11-23T08:11:01Z</time>
      </trkpt>
      <trkpt lat="44.98268" lon="4.50692">
        <ele>578</ele>
        <time>2015-11-23T08:11:07Z</time>
      </trkpt>
      <trkpt lat="44.98265" lon="4.5068">
        <ele>579</ele>
        <time>2015-11-23T08:11:15Z</time>
      </trkpt>
      <trkpt lat="44.98263" lon="4.5067">
        <ele>579</ele>
        <time>2015-11-23T08:11:21Z</time>
      </trkpt>
      <trkpt lat="44.98262" lon="4.50659">
        <ele>579</ele>
        <time>2015-11-23T08:11:25Z</time>
      </trkpt>
      <trkpt lat="44.98262" lon="4.50648">
        <ele>579</ele>
        <time>2015-11-23T08:11:29Z</time>
      </trkpt>
      <trkpt lat="44.98262" lon="4.50633">
        <ele>580</ele>
        <time>2015-11-23T08:11:34Z</time>
      </trkpt>
      <trkpt lat="44.98261" lon="4.50616">
        <ele>580</ele>
        <time>2015-11-23T08:11:39Z</time>
      </trkpt>
      <trkpt lat="44.98261" lon="4.50605">
        <ele>580</ele>
        <time>2015-11-23T08:11:43Z</time>
      </trkpt>
      <trkpt lat="44.9826" lon="4.50596">
        <ele>580</ele>
        <time>2015-11-23T08:11:46Z</time>
      </trkpt>
      <trkpt lat="44.98261" lon="4.5058">
        <ele>579</ele>
        <time>2015-11-23T08:11:51Z</time>
      </trkpt>
      <trkpt lat="44.98262" lon="4.50568">
        <ele>578</ele>
        <time>2015-11-23T08:11:55Z</time>
      </trkpt>
      <trkpt lat="44.98264" lon="4.50553">
        <ele>578</ele>
        <time>2015-11-23T08:11:59Z</time>
      </trkpt>
      <trkpt lat="44.98264" lon="4.50536">
        <ele>578</ele>
        <time>2015-11-23T08:12:04Z</time>
      </trkpt>
      <trkpt lat="44.98266" lon="4.50526">
        <ele>577</ele>
        <time>2015-11-23T08:12:07Z</time>
      </trkpt>
      <trkpt lat="44.98268" lon="4.50516">
        <ele>576</ele>
        <time>2015-11-23T08:12:10Z</time>
      </trkpt>
      <trkpt lat="44.98269" lon="4.50499">
        <ele>576</ele>
        <time>2015-11-23T08:12:15Z</time>
      </trkpt>
      <trkpt lat="44.98269" lon="4.50486">
        <ele>576</ele>
        <time>2015-11-23T08:12:19Z</time>
      </trkpt>
      <trkpt lat="44.9827" lon="4.50475">
        <ele>575</ele>
        <time>2015-11-23T08:12:22Z</time>
      </trkpt>
      <trkpt lat="44.98269" lon="4.50459">
        <ele>575</ele>
        <time>2015-11-23T08:12:27Z</time>
      </trkpt>
      <trkpt lat="44.98268" lon="4.50449">
        <ele>576</ele>
        <time>2015-11-23T08:12:30Z</time>
      </trkpt>
      <trkpt lat="44.98267" lon="4.50439">
        <ele>575</ele>
        <time>2015-11-23T08:12:34Z</time>
      </trkpt>
      <trkpt lat="44.98266" lon="4.50428">
        <ele>575</ele>
        <time>2015-11-23T08:12:37Z</time>
      </trkpt>
      <trkpt lat="44.98266" lon="4.5042">
        <ele>575</ele>
        <time>2015-11-23T08:12:40Z</time>
      </trkpt>
      <trkpt lat="44.98266" lon="4.50406">
        <ele>574</ele>
        <time>2015-11-23T08:12:45Z</time>
      </trkpt>
      <trkpt lat="44.98267" lon="4.50394">
        <ele>573</ele>
        <time>2015-11-23T08:12:49Z</time>
      </trkpt>
      <trkpt lat="44.98269" lon="4.50383">
        <ele>572</ele>
        <time>2015-11-23T08:12:53Z</time>
      </trkpt>
      <trkpt lat="44.98274" lon="4.50372">
        <ele>571</ele>
        <time>2015-11-23T08:12:58Z</time>
      </trkpt>
      <trkpt lat="44.98274" lon="4.50359">
        <ele>571</ele>
        <time>2015-11-23T08:13:02Z</time>
      </trkpt>
      <trkpt lat="44.98277" lon="4.50347">
        <ele>572</ele>
        <time>2015-11-23T08:13:06Z</time>
      </trkpt>
      <trkpt lat="44.9827" lon="4.50332">
        <ele>573</ele>
        <time>2015-11-23T08:13:10Z</time>
      </trkpt>
      <trkpt lat="44.98264" lon="4.50321">
        <ele>574</ele>
        <time>2015-11-23T08:13:13Z</time>
      </trkpt>
      <trkpt lat="44.98254" lon="4.50302">
        <ele>574</ele>
        <time>2015-11-23T08:13:18Z</time>
      </trkpt>
      <trkpt lat="44.98245" lon="4.50289">
        <ele>575</ele>
        <time>2015-11-23T08:13:23Z</time>
      </trkpt>
      <trkpt lat="44.98236" lon="4.50281">
        <ele>574</ele>
        <time>2015-11-23T08:13:27Z</time>
      </trkpt>
      <trkpt lat="44.98231" lon="4.50279">
        <ele>574</ele>
        <time>2015-11-23T08:13:29Z</time>
      </trkpt>
      <trkpt lat="44.98223" lon="4.50276">
        <ele>576</ele>
        <time>2015-11-23T08:13:33Z</time>
      </trkpt>
      <trkpt lat="44.98213" lon="4.50284">
        <ele>577</ele>
        <time>2015-11-23T08:13:38Z</time>
      </trkpt>
      <trkpt lat="44.98208" lon="4.50288">
        <ele>577</ele>
        <time>2015-11-23T08:13:41Z</time>
      </trkpt>
      <trkpt lat="44.982" lon="4.50295">
        <ele>580</ele>
        <time>2015-11-23T08:13:45Z</time>
      </trkpt>
      <trkpt lat="44.9819" lon="4.50297">
        <ele>580</ele>
        <time>2015-11-23T08:13:50Z</time>
      </trkpt>
      <trkpt lat="44.98179" lon="4.50305">
        <ele>581</ele>
        <time>2015-11-23T08:13:54Z</time>
      </trkpt>
      <trkpt lat="44.9817" lon="4.5031">
        <ele>584</ele>
        <time>2015-11-23T08:13:57Z</time>
      </trkpt>
      <trkpt lat="44.98157" lon="4.50315">
        <ele>588</ele>
        <time>2015-11-23T08:14:02Z</time>
      </trkpt>
      <trkpt lat="44.98147" lon="4.5032">
        <ele>589</ele>
        <time>2015-11-23T08:14:06Z</time>
      </trkpt>
      <trkpt lat="44.98141" lon="4.50323">
        <ele>589</ele>
        <time>2015-11-23T08:14:18Z</time>
      </trkpt>
      <trkpt lat="44.98119" lon="4.50338">
        <ele>591</ele>
        <time>2015-11-23T08:14:18Z</time>
      </trkpt>
      <trkpt lat="44.98112" lon="4.50342">
        <ele>591</ele>
        <time>2015-11-23T08:14:24Z</time>
      </trkpt>
      <trkpt lat="44.98096" lon="4.50355">
        <ele>592</ele>
        <time>2015-11-23T08:14:28Z</time>
      </trkpt>
      <trkpt lat="44.98086" lon="4.50365">
        <ele>592</ele>
        <time>2015-11-23T08:14:32Z</time>
      </trkpt>
      <trkpt lat="44.98077" lon="4.50375">
        <ele>592</ele>
        <time>2015-11-23T08:14:36Z</time>
      </trkpt>
      <trkpt lat="44.98068" lon="4.50388">
        <ele>593</ele>
        <time>2015-11-23T08:14:41Z</time>
      </trkpt>
      <trkpt lat="44.9806" lon="4.50398">
        <ele>593</ele>
        <time>2015-11-23T08:14:45Z</time>
      </trkpt>
      <trkpt lat="44.9805" lon="4.50405">
        <ele>595</ele>
        <time>2015-11-23T08:14:49Z</time>
      </trkpt>
      <trkpt lat="44.98041" lon="4.50412">
        <ele>596</ele>
        <time>2015-11-23T08:14:56Z</time>
      </trkpt>
      <trkpt lat="44.98034" lon="4.50412">
        <ele>598</ele>
        <time>2015-11-23T08:15:05Z</time>
      </trkpt>
      <trkpt lat="44.98025" lon="4.50414">
        <ele>598</ele>
        <time>2015-11-23T08:15:15Z</time>
      </trkpt>
      <trkpt lat="44.98009" lon="4.50416">
        <ele>600</ele>
        <time>2015-11-23T08:15:19Z</time>
      </trkpt>
      <trkpt lat="44.98004" lon="4.50406">
        <ele>600</ele>
        <time>2015-11-23T08:15:32Z</time>
      </trkpt>
      <trkpt lat="44.98004" lon="4.50395">
        <ele>599</ele>
        <time>2015-11-23T08:15:37Z</time>
      </trkpt>
      <trkpt lat="44.98007" lon="4.50383">
        <ele>598</ele>
        <time>2015-11-23T08:15:42Z</time>
      </trkpt>
      <trkpt lat="44.98008" lon="4.50371">
        <ele>599</ele>
        <time>2015-11-23T08:15:53Z</time>
      </trkpt>
      <trkpt lat="44.98006" lon="4.50359">
        <ele>599</ele>
        <time>2015-11-23T08:16:00Z</time>
      </trkpt>
      <trkpt lat="44.98005" lon="4.50351">
        <ele>599</ele>
        <time>2015-11-23T08:16:04Z</time>
      </trkpt>
      <trkpt lat="44.98004" lon="4.50339">
        <ele>599</ele>
        <time>2015-11-23T08:16:08Z</time>
      </trkpt>
      <trkpt lat="44.98004" lon="4.5033">
        <ele>600</ele>
        <time>2015-11-23T08:16:11Z</time>
      </trkpt>
      <trkpt lat="44.98004" lon="4.50317">
        <ele>600</ele>
        <time>2015-11-23T08:16:16Z</time>
      </trkpt>
      <trkpt lat="44.98003" lon="4.50305">
        <ele>599</ele>
        <time>2015-11-23T08:16:21Z</time>
      </trkpt>
      <trkpt lat="44.98" lon="4.50298">
        <ele>599</ele>
        <time>2015-11-23T08:16:24Z</time>
      </trkpt>
      <trkpt lat="44.97995" lon="4.50283">
        <ele>599</ele>
        <time>2015-11-23T08:16:29Z</time>
      </trkpt>
      <trkpt lat="44.97991" lon="4.50272">
        <ele>599</ele>
        <time>2015-11-23T08:16:33Z</time>
      </trkpt>
      <trkpt lat="44.97987" lon="4.50258">
        <ele>599</ele>
        <time>2015-11-23T08:16:38Z</time>
      </trkpt>
      <trkpt lat="44.97986" lon="4.50247">
        <ele>598</ele>
        <time>2015-11-23T08:16:41Z</time>
      </trkpt>
      <trkpt lat="44.97984" lon="4.50237">
        <ele>598</ele>
        <time>2015-11-23T08:16:44Z</time>
      </trkpt>
      <trkpt lat="44.97983" lon="4.50227">
        <ele>598</ele>
        <time>2015-11-23T08:16:47Z</time>
      </trkpt>
      <trkpt lat="44.97981" lon="4.50209">
        <ele>598</ele>
        <time>2015-11-23T08:16:52Z</time>
      </trkpt>
      <trkpt lat="44.9798" lon="4.502">
        <ele>598</ele>
        <time>2015-11-23T08:16:55Z</time>
      </trkpt>
      <trkpt lat="44.97979" lon="4.5019">
        <ele>598</ele>
        <time>2015-11-23T08:16:59Z</time>
      </trkpt>
      <trkpt lat="44.97974" lon="4.50173">
        <ele>597</ele>
        <time>2015-11-23T08:17:03Z</time>
      </trkpt>
      <trkpt lat="44.97972" lon="4.50159">
        <ele>596</ele>
        <time>2015-11-23T08:17:08Z</time>
      </trkpt>
      <trkpt lat="44.97965" lon="4.50152">
        <ele>594</ele>
        <time>2015-11-23T08:17:21Z</time>
      </trkpt>
      <trkpt lat="44.97957" lon="4.50152">
        <ele>593</ele>
        <time>2015-11-23T08:17:27Z</time>
      </trkpt>
      <trkpt lat="44.97949" lon="4.50155">
        <ele>593</ele>
        <time>2015-11-23T08:17:31Z</time>
      </trkpt>
      <trkpt lat="44.97943" lon="4.5016">
        <ele>593</ele>
        <time>2015-11-23T08:17:37Z</time>
      </trkpt>
      <trkpt lat="44.97937" lon="4.50167">
        <ele>593</ele>
        <time>2015-11-23T08:17:42Z</time>
      </trkpt>
      <trkpt lat="44.97931" lon="4.50175">
        <ele>593</ele>
        <time>2015-11-23T08:17:47Z</time>
      </trkpt>
      <trkpt lat="44.97926" lon="4.50184">
        <ele>593</ele>
        <time>2015-11-23T08:17:51Z</time>
      </trkpt>
      <trkpt lat="44.97922" lon="4.50192">
        <ele>593</ele>
        <time>2015-11-23T08:17:54Z</time>
      </trkpt>
      <trkpt lat="44.97916" lon="4.502">
        <ele>592</ele>
        <time>2015-11-23T08:17:59Z</time>
      </trkpt>
      <trkpt lat="44.97911" lon="4.50211">
        <ele>592</ele>
        <time>2015-11-23T08:18:03Z</time>
      </trkpt>
      <trkpt lat="44.97906" lon="4.50221">
        <ele>592</ele>
        <time>2015-11-23T08:18:07Z</time>
      </trkpt>
      <trkpt lat="44.97902" lon="4.50233">
        <ele>592</ele>
        <time>2015-11-23T08:18:12Z</time>
      </trkpt>
      <trkpt lat="44.97897" lon="4.50244">
        <ele>592</ele>
        <time>2015-11-23T08:18:15Z</time>
      </trkpt>
      <trkpt lat="44.97892" lon="4.50254">
        <ele>592</ele>
        <time>2015-11-23T08:18:19Z</time>
      </trkpt>
      <trkpt lat="44.97883" lon="4.50261">
        <ele>591</ele>
        <time>2015-11-23T08:18:24Z</time>
      </trkpt>
      <trkpt lat="44.97879" lon="4.50267">
        <ele>591</ele>
        <time>2015-11-23T08:18:27Z</time>
      </trkpt>
      <trkpt lat="44.97871" lon="4.50273">
        <ele>591</ele>
        <time>2015-11-23T08:18:31Z</time>
      </trkpt>
      <trkpt lat="44.97857" lon="4.50292">
        <ele>591</ele>
        <time>2015-11-23T08:18:36Z</time>
      </trkpt>
      <trkpt lat="44.97844" lon="4.50301">
        <ele>591</ele>
        <time>2015-11-23T08:18:41Z</time>
      </trkpt>
      <trkpt lat="44.97836" lon="4.50306">
        <ele>589</ele>
        <time>2015-11-23T08:18:46Z</time>
      </trkpt>
      <trkpt lat="44.97831" lon="4.50304">
        <ele>589</ele>
        <time>2015-11-23T08:18:49Z</time>
      </trkpt>
      <trkpt lat="44.97819" lon="4.50304">
        <ele>588</ele>
        <time>2015-11-23T08:18:54Z</time>
      </trkpt>
      <trkpt lat="44.97809" lon="4.50301">
        <ele>586</ele>
        <time>2015-11-23T08:18:58Z</time>
      </trkpt>
      <trkpt lat="44.97796" lon="4.50301">
        <ele>584</ele>
        <time>2015-11-23T08:19:02Z</time>
      </trkpt>
      <trkpt lat="44.97791" lon="4.50303">
        <ele>583</ele>
        <time>2015-11-23T08:19:05Z</time>
      </trkpt>
      <trkpt lat="44.97776" lon="4.50293">
        <ele>581</ele>
        <time>2015-11-23T08:19:09Z</time>
      </trkpt>
      <trkpt lat="44.97768" lon="4.50292">
        <ele>579</ele>
        <time>2015-11-23T08:19:14Z</time>
      </trkpt>
      <trkpt lat="44.97762" lon="4.50284">
        <ele>577</ele>
        <time>2015-11-23T08:19:18Z</time>
      </trkpt>
      <trkpt lat="44.97754" lon="4.5029">
        <ele>576</ele>
        <time>2015-11-23T08:19:26Z</time>
      </trkpt>
      <trkpt lat="44.97758" lon="4.50301">
        <ele>574</ele>
        <time>2015-11-23T08:19:32Z</time>
      </trkpt>
      <trkpt lat="44.97761" lon="4.5031">
        <ele>573</ele>
        <time>2015-11-23T08:19:35Z</time>
      </trkpt>
      <trkpt lat="44.97767" lon="4.50323">
        <ele>573</ele>
        <time>2015-11-23T08:19:39Z</time>
      </trkpt>
      <trkpt lat="44.97769" lon="4.50333">
        <ele>572</ele>
        <time>2015-11-23T08:19:42Z</time>
      </trkpt>
      <trkpt lat="44.97773" lon="4.50344">
        <ele>571</ele>
        <time>2015-11-23T08:19:47Z</time>
      </trkpt>
      <trkpt lat="44.97774" lon="4.50352">
        <ele>571</ele>
        <time>2015-11-23T08:19:51Z</time>
      </trkpt>
      <trkpt lat="44.97778" lon="4.50359">
        <ele>569</ele>
        <time>2015-11-23T08:19:55Z</time>
      </trkpt>
      <trkpt lat="44.9778" lon="4.50371">
        <ele>567</ele>
        <time>2015-11-23T08:20:00Z</time>
      </trkpt>
      <trkpt lat="44.9778" lon="4.5038">
        <ele>566</ele>
        <time>2015-11-23T08:20:03Z</time>
      </trkpt>
      <trkpt lat="44.97778" lon="4.5039">
        <ele>565</ele>
        <time>2015-11-23T08:20:06Z</time>
      </trkpt>
      <trkpt lat="44.97777" lon="4.50406">
        <ele>563</ele>
        <time>2015-11-23T08:20:11Z</time>
      </trkpt>
      <trkpt lat="44.97772" lon="4.50417">
        <ele>563</ele>
        <time>2015-11-23T08:20:15Z</time>
      </trkpt>
      <trkpt lat="44.9777" lon="4.50431">
        <ele>563</ele>
        <time>2015-11-23T08:20:19Z</time>
      </trkpt>
      <trkpt lat="44.9777" lon="4.5044">
        <ele>563</ele>
        <time>2015-11-23T08:20:25Z</time>
      </trkpt>
      <trkpt lat="44.97769" lon="4.50452">
        <ele>561</ele>
        <time>2015-11-23T08:20:33Z</time>
      </trkpt>
      <trkpt lat="44.97764" lon="4.50465">
        <ele>559</ele>
        <time>2015-11-23T08:20:38Z</time>
      </trkpt>
      <trkpt lat="44.97762" lon="4.50473">
        <ele>558</ele>
        <time>2015-11-23T08:20:42Z</time>
      </trkpt>
      <trkpt lat="44.97758" lon="4.50483">
        <ele>556</ele>
        <time>2015-11-23T08:20:46Z</time>
      </trkpt>
      <trkpt lat="44.97752" lon="4.50491">
        <ele>555</ele>
        <time>2015-11-23T08:20:53Z</time>
      </trkpt>
      <trkpt lat="44.97744" lon="4.50491">
        <ele>556</ele>
        <time>2015-11-23T08:21:22Z</time>
      </trkpt>
      <trkpt lat="44.97741" lon="4.50498">
        <ele>557</ele>
        <time>2015-11-23T08:21:28Z</time>
      </trkpt>
      <trkpt lat="44.97742" lon="4.50506">
        <ele>558</ele>
        <time>2015-11-23T08:21:31Z</time>
      </trkpt>
      <trkpt lat="44.9774" lon="4.50514">
        <ele>559</ele>
        <time>2015-11-23T08:21:35Z</time>
      </trkpt>
      <trkpt lat="44.97736" lon="4.50522">
        <ele>559</ele>
        <time>2015-11-23T08:21:51Z</time>
      </trkpt>
      <trkpt lat="44.97732" lon="4.50535">
        <ele>560</ele>
        <time>2015-11-23T08:21:55Z</time>
      </trkpt>
      <trkpt lat="44.97739" lon="4.50544">
        <ele>559</ele>
        <time>2015-11-23T08:22:04Z</time>
      </trkpt>
      <trkpt lat="44.97744" lon="4.50552">
        <ele>559</ele>
        <time>2015-11-23T08:22:13Z</time>
      </trkpt>
      <trkpt lat="44.97751" lon="4.50553">
        <ele>558</ele>
        <time>2015-11-23T08:22:29Z</time>
      </trkpt>
      <trkpt lat="44.97757" lon="4.50548">
        <ele>557</ele>
        <time>2015-11-23T08:22:39Z</time>
      </trkpt>
      <trkpt lat="44.97765" lon="4.50545">
        <ele>557</ele>
        <time>2015-11-23T08:22:45Z</time>
      </trkpt>
      <trkpt lat="44.97773" lon="4.50541">
        <ele>556</ele>
        <time>2015-11-23T08:22:49Z</time>
      </trkpt>
      <trkpt lat="44.97782" lon="4.50536">
        <ele>556</ele>
        <time>2015-11-23T08:22:53Z</time>
      </trkpt>
      <trkpt lat="44.9779" lon="4.50529">
        <ele>555</ele>
        <time>2015-11-23T08:22:57Z</time>
      </trkpt>
      <trkpt lat="44.97805" lon="4.50526">
        <ele>553</ele>
        <time>2015-11-23T08:23:01Z</time>
      </trkpt>
      <trkpt lat="44.97804" lon="4.50537">
        <ele>551</ele>
        <time>2015-11-23T08:23:10Z</time>
      </trkpt>
      <trkpt lat="44.97801" lon="4.50544">
        <ele>550</ele>
        <time>2015-11-23T08:23:17Z</time>
      </trkpt>
      <trkpt lat="44.97797" lon="4.50552">
        <ele>549</ele>
        <time>2015-11-23T08:23:21Z</time>
      </trkpt>
      <trkpt lat="44.97789" lon="4.50559">
        <ele>548</ele>
        <time>2015-11-23T08:23:26Z</time>
      </trkpt>
      <trkpt lat="44.97786" lon="4.50569">
        <ele>546</ele>
        <time>2015-11-23T08:23:33Z</time>
      </trkpt>
      <trkpt lat="44.97778" lon="4.50575">
        <ele>544</ele>
        <time>2015-11-23T08:23:39Z</time>
      </trkpt>
      <trkpt lat="44.97771" lon="4.50579">
        <ele>543</ele>
        <time>2015-11-23T08:23:43Z</time>
      </trkpt>
      <trkpt lat="44.97767" lon="4.50586">
        <ele>541</ele>
        <time>2015-11-23T08:23:47Z</time>
      </trkpt>
      <trkpt lat="44.97761" lon="4.50595">
        <ele>539</ele>
        <time>2015-11-23T08:23:53Z</time>
      </trkpt>
      <trkpt lat="44.97757" lon="4.50604">
        <ele>537</ele>
        <time>2015-11-23T08:23:58Z</time>
      </trkpt>
      <trkpt lat="44.97752" lon="4.50615">
        <ele>536</ele>
        <time>2015-11-23T08:24:03Z</time>
      </trkpt>
      <trkpt lat="44.97749" lon="4.50625">
        <ele>534</ele>
        <time>2015-11-23T08:24:11Z</time>
      </trkpt>
      <trkpt lat="44.97747" lon="4.5063">
        <ele>533</ele>
        <time>2015-11-23T08:24:25Z</time>
      </trkpt>
      <trkpt lat="44.97726" lon="4.50652">
        <ele>527</ele>
        <time>2015-11-23T08:24:29Z</time>
      </trkpt>
      <trkpt lat="44.97719" lon="4.50657">
        <ele>525</ele>
        <time>2015-11-23T08:24:34Z</time>
      </trkpt>
      <trkpt lat="44.97716" lon="4.5066">
        <ele>523</ele>
        <time>2015-11-23T08:24:37Z</time>
      </trkpt>
      <trkpt lat="44.97708" lon="4.50654">
        <ele>517</ele>
        <time>2015-11-23T08:24:57Z</time>
      </trkpt>
      <trkpt lat="44.97701" lon="4.50659">
        <ele>516</ele>
        <time>2015-11-23T08:25:12Z</time>
      </trkpt>
      <trkpt lat="44.97694" lon="4.50658">
        <ele>515</ele>
        <time>2015-11-23T08:25:20Z</time>
      </trkpt>
      <trkpt lat="44.97687" lon="4.50658">
        <ele>515</ele>
        <time>2015-11-23T08:25:25Z</time>
      </trkpt>
      <trkpt lat="44.97678" lon="4.5066">
        <ele>514</ele>
        <time>2015-11-23T08:25:32Z</time>
      </trkpt>
      <trkpt lat="44.97669" lon="4.5066">
        <ele>513</ele>
        <time>2015-11-23T08:25:40Z</time>
      </trkpt>
      <trkpt lat="44.97665" lon="4.50652">
        <ele>512</ele>
        <time>2015-11-23T08:25:52Z</time>
      </trkpt>
      <trkpt lat="44.97657" lon="4.50648">
        <ele>511</ele>
        <time>2015-11-23T08:25:59Z</time>
      </trkpt>
      <trkpt lat="44.97649" lon="4.50643">
        <ele>509</ele>
        <time>2015-11-23T08:26:22Z</time>
      </trkpt>
      <trkpt lat="44.97642" lon="4.50641">
        <ele>510</ele>
        <time>2015-11-23T08:26:30Z</time>
      </trkpt>
      <trkpt lat="44.9763" lon="4.50655">
        <ele>510</ele>
        <time>2015-11-23T08:26:35Z</time>
      </trkpt>
      <trkpt lat="44.97623" lon="4.50657">
        <ele>510</ele>
        <time>2015-11-23T08:26:39Z</time>
      </trkpt>
      <trkpt lat="44.97614" lon="4.50659">
        <ele>510</ele>
        <time>2015-11-23T08:26:44Z</time>
      </trkpt>
      <trkpt lat="44.97604" lon="4.50665">
        <ele>510</ele>
        <time>2015-11-23T08:26:49Z</time>
      </trkpt>
      <trkpt lat="44.97597" lon="4.50666">
        <ele>510</ele>
        <time>2015-11-23T08:26:53Z</time>
      </trkpt>
      <trkpt lat="44.97589" lon="4.50666">
        <ele>509</ele>
        <time>2015-11-23T08:26:58Z</time>
      </trkpt>
      <trkpt lat="44.97583" lon="4.5066">
        <ele>508</ele>
        <time>2015-11-23T08:27:04Z</time>
      </trkpt>
      <trkpt lat="44.97577" lon="4.50656">
        <ele>508</ele>
        <time>2015-11-23T08:27:10Z</time>
      </trkpt>
      <trkpt lat="44.9757" lon="4.50648">
        <ele>507</ele>
        <time>2015-11-23T08:27:16Z</time>
      </trkpt>
      <trkpt lat="44.97565" lon="4.50644">
        <ele>507</ele>
        <time>2015-11-23T08:27:21Z</time>
      </trkpt>
      <trkpt lat="44.97558" lon="4.50631">
        <ele>508</ele>
        <time>2015-11-23T08:27:25Z</time>
      </trkpt>
      <trkpt lat="44.97557" lon="4.50642">
        <ele>509</ele>
        <time>2015-11-23T08:27:37Z</time>
      </trkpt>
      <trkpt lat="44.97563" lon="4.50649">
        <ele>508</ele>
        <time>2015-11-23T08:27:46Z</time>
      </trkpt>
      <trkpt lat="44.97571" lon="4.50654">
        <ele>507</ele>
        <time>2015-11-23T08:27:54Z</time>
      </trkpt>
      <trkpt lat="44.97575" lon="4.50662">
        <ele>506</ele>
        <time>2015-11-23T08:27:59Z</time>
      </trkpt>
      <trkpt lat="44.97579" lon="4.50669">
        <ele>505</ele>
        <time>2015-11-23T08:28:05Z</time>
      </trkpt>
      <trkpt lat="44.97585" lon="4.50673">
        <ele>504</ele>
        <time>2015-11-23T08:28:09Z</time>
      </trkpt>
      <trkpt lat="44.97592" lon="4.50678">
        <ele>504</ele>
        <time>2015-11-23T08:28:18Z</time>
      </trkpt>
      <trkpt lat="44.97592" lon="4.5069">
        <ele>506</ele>
        <time>2015-11-23T08:28:29Z</time>
      </trkpt>
      <trkpt lat="44.97584" lon="4.50695">
        <ele>509</ele>
        <time>2015-11-23T08:28:39Z</time>
      </trkpt>
      <trkpt lat="44.97587" lon="4.50706">
        <ele>513</ele>
        <time>2015-11-23T08:28:55Z</time>
      </trkpt>
      <trkpt lat="44.97594" lon="4.50714">
        <ele>514</ele>
        <time>2015-11-23T08:29:09Z</time>
      </trkpt>
      <trkpt lat="44.976" lon="4.50722">
        <ele>514</ele>
        <time>2015-11-23T08:29:17Z</time>
      </trkpt>
      <trkpt lat="44.97605" lon="4.50731">
        <ele>515</ele>
        <time>2015-11-23T08:29:25Z</time>
      </trkpt>
      <trkpt lat="44.97612" lon="4.50735">
        <ele>515</ele>
        <time>2015-11-23T08:29:30Z</time>
      </trkpt>
      <trkpt lat="44.97618" lon="4.50738">
        <ele>515</ele>
        <time>2015-11-23T08:29:34Z</time>
      </trkpt>
      <trkpt lat="44.97624" lon="4.50743">
        <ele>515</ele>
        <time>2015-11-23T08:29:40Z</time>
      </trkpt>
      <trkpt lat="44.97627" lon="4.50753">
        <ele>516</ele>
        <time>2015-11-23T08:29:45Z</time>
      </trkpt>
      <trkpt lat="44.97624" lon="4.50765">
        <ele>515</ele>
        <time>2015-11-23T08:29:51Z</time>
      </trkpt>
      <trkpt lat="44.9762" lon="4.50775">
        <ele>514</ele>
        <time>2015-11-23T08:29:55Z</time>
      </trkpt>
      <trkpt lat="44.97616" lon="4.50784">
        <ele>514</ele>
        <time>2015-11-23T08:30:00Z</time>
      </trkpt>
      <trkpt lat="44.97605" lon="4.50791">
        <ele>514</ele>
        <time>2015-11-23T08:30:05Z</time>
      </trkpt>
      <trkpt lat="44.97602" lon="4.50804">
        <ele>515</ele>
        <time>2015-11-23T08:30:09Z</time>
      </trkpt>
      <trkpt lat="44.97598" lon="4.50807">
        <ele>515</ele>
        <time>2015-11-23T08:30:13Z</time>
      </trkpt>
      <trkpt lat="44.97606" lon="4.50802">
        <ele>525</ele>
        <time>2015-11-23T08:30:35Z</time>
      </trkpt>
      <trkpt lat="44.97599" lon="4.50799">
        <ele>526</ele>
        <time>2015-11-23T08:30:56Z</time>
      </trkpt>
      <trkpt lat="44.97592" lon="4.50796">
        <ele>526</ele>
        <time>2015-11-23T08:31:02Z</time>
      </trkpt>
      <trkpt lat="44.97585" lon="4.50796">
        <ele>526</ele>
        <time>2015-11-23T08:31:06Z</time>
      </trkpt>
      <trkpt lat="44.97577" lon="4.50797">
        <ele>527</ele>
        <time>2015-11-23T08:31:15Z</time>
      </trkpt>
      <trkpt lat="44.9757" lon="4.50798">
        <ele>527</ele>
        <time>2015-11-23T08:31:21Z</time>
      </trkpt>
      <trkpt lat="44.97563" lon="4.50796">
        <ele>528</ele>
        <time>2015-11-23T08:31:35Z</time>
      </trkpt>
      <trkpt lat="44.97563" lon="4.508">
        <ele>530</ele>
        <time>2015-11-23T08:31:42Z</time>
      </trkpt>
      <trkpt lat="44.97552" lon="4.50797">
        <ele>537</ele>
        <time>2015-11-23T08:31:46Z</time>
      </trkpt>
      <trkpt lat="44.97553" lon="4.50809">
        <ele>540</ele>
        <time>2015-11-23T08:32:03Z</time>
      </trkpt>
      <trkpt lat="44.97548" lon="4.50818">
        <ele>542</ele>
        <time>2015-11-23T08:32:10Z</time>
      </trkpt>
      <trkpt lat="44.9754" lon="4.50831">
        <ele>544</ele>
        <time>2015-11-23T08:32:15Z</time>
      </trkpt>
      <trkpt lat="44.97536" lon="4.50839">
        <ele>545</ele>
        <time>2015-11-23T08:32:21Z</time>
      </trkpt>
      <trkpt lat="44.97529" lon="4.50845">
        <ele>546</ele>
        <time>2015-11-23T08:32:28Z</time>
      </trkpt>
      <trkpt lat="44.97524" lon="4.50853">
        <ele>547</ele>
        <time>2015-11-23T08:32:37Z</time>
      </trkpt>
      <trkpt lat="44.9752" lon="4.50864">
        <ele>550</ele>
        <time>2015-11-23T08:32:45Z</time>
      </trkpt>
      <trkpt lat="44.9752" lon="4.50876">
        <ele>551</ele>
        <time>2015-11-23T08:32:59Z</time>
      </trkpt>
      <trkpt lat="44.97518" lon="4.50892">
        <ele>555</ele>
        <time>2015-11-23T08:33:01Z</time>
      </trkpt>
      <trkpt lat="44.9752" lon="4.50904">
        <ele>556</ele>
        <time>2015-11-23T08:33:10Z</time>
      </trkpt>
      <trkpt lat="44.9752" lon="4.50926">
        <ele>559</ele>
        <time>2015-11-23T08:33:25Z</time>
      </trkpt>
      <trkpt lat="44.9752" lon="4.50937">
        <ele>559</ele>
        <time>2015-11-23T08:33:31Z</time>
      </trkpt>
      <trkpt lat="44.97519" lon="4.50949">
        <ele>560</ele>
        <time>2015-11-23T08:33:35Z</time>
      </trkpt>
      <trkpt lat="44.97517" lon="4.50961">
        <ele>561</ele>
        <time>2015-11-23T08:33:41Z</time>
      </trkpt>
      <trkpt lat="44.97517" lon="4.50973">
        <ele>562</ele>
        <time>2015-11-23T08:33:45Z</time>
      </trkpt>
      <trkpt lat="44.97517" lon="4.50983">
        <ele>562</ele>
        <time>2015-11-23T08:33:51Z</time>
      </trkpt>
      <trkpt lat="44.97516" lon="4.50987">
        <ele>562</ele>
        <time>2015-11-23T08:33:54Z</time>
      </trkpt>
      <trkpt lat="44.97515" lon="4.50999">
        <ele>561</ele>
        <time>2015-11-23T08:34:00Z</time>
      </trkpt>
      <trkpt lat="44.97513" lon="4.51009">
        <ele>562</ele>
        <time>2015-11-23T08:34:06Z</time>
      </trkpt>
      <trkpt lat="44.97507" lon="4.51034">
        <ele>562</ele>
        <time>2015-11-23T08:34:20Z</time>
      </trkpt>
      <trkpt lat="44.97506" lon="4.51041">
        <ele>562</ele>
        <time>2015-11-23T08:34:22Z</time>
      </trkpt>
      <trkpt lat="44.97504" lon="4.51051">
        <ele>563</ele>
        <time>2015-11-23T08:34:27Z</time>
      </trkpt>
      <trkpt lat="44.97503" lon="4.5106">
        <ele>563</ele>
        <time>2015-11-23T08:34:32Z</time>
      </trkpt>
      <trkpt lat="44.97499" lon="4.51073">
        <ele>564</ele>
        <time>2015-11-23T08:34:37Z</time>
      </trkpt>
      <trkpt lat="44.97497" lon="4.51085">
        <ele>564</ele>
        <time>2015-11-23T08:34:52Z</time>
      </trkpt>
      <trkpt lat="44.97495" lon="4.51093">
        <ele>563</ele>
        <time>2015-11-23T08:34:56Z</time>
      </trkpt>
      <trkpt lat="44.97493" lon="4.51104">
        <ele>563</ele>
        <time>2015-11-23T08:35:01Z</time>
      </trkpt>
      <trkpt lat="44.97492" lon="4.51113">
        <ele>563</ele>
        <time>2015-11-23T08:35:05Z</time>
      </trkpt>
      <trkpt lat="44.97492" lon="4.51119">
        <ele>564</ele>
        <time>2015-11-23T08:35:08Z</time>
      </trkpt>
      <trkpt lat="44.97494" lon="4.51131">
        <ele>564</ele>
        <time>2015-11-23T08:35:14Z</time>
      </trkpt>
      <trkpt lat="44.97493" lon="4.51145">
        <ele>563</ele>
        <time>2015-11-23T08:35:19Z</time>
      </trkpt>
      <trkpt lat="44.97493" lon="4.51154">
        <ele>563</ele>
        <time>2015-11-23T08:35:25Z</time>
      </trkpt>
      <trkpt lat="44.97491" lon="4.51163">
        <ele>565</ele>
        <time>2015-11-23T08:35:27Z</time>
      </trkpt>
      <trkpt lat="44.97491" lon="4.51176">
        <ele>569</ele>
        <time>2015-11-23T08:35:35Z</time>
      </trkpt>
      <trkpt lat="44.97491" lon="4.51188">
        <ele>569</ele>
        <time>2015-11-23T08:35:39Z</time>
      </trkpt>
      <trkpt lat="44.9749" lon="4.51196">
        <ele>569</ele>
        <time>2015-11-23T08:35:45Z</time>
      </trkpt>
      <trkpt lat="44.97491" lon="4.51201">
        <ele>570</ele>
        <time>2015-11-23T08:35:47Z</time>
      </trkpt>
      <trkpt lat="44.97486" lon="4.51211">
        <ele>571</ele>
        <time>2015-11-23T08:35:53Z</time>
      </trkpt>
      <trkpt lat="44.97488" lon="4.51223">
        <ele>573</ele>
        <time>2015-11-23T08:36:01Z</time>
      </trkpt>
      <trkpt lat="44.97487" lon="4.51234">
        <ele>575</ele>
        <time>2015-11-23T08:36:06Z</time>
      </trkpt>
      <trkpt lat="44.97483" lon="4.51244">
        <ele>576</ele>
        <time>2015-11-23T08:36:11Z</time>
      </trkpt>
      <trkpt lat="44.97482" lon="4.51256">
        <ele>577</ele>
        <time>2015-11-23T08:36:19Z</time>
      </trkpt>
      <trkpt lat="44.9748" lon="4.51265">
        <ele>578</ele>
        <time>2015-11-23T08:36:27Z</time>
      </trkpt>
      <trkpt lat="44.97476" lon="4.51273">
        <ele>579</ele>
        <time>2015-11-23T08:36:33Z</time>
      </trkpt>
      <trkpt lat="44.97479" lon="4.51285">
        <ele>582</ele>
        <time>2015-11-23T08:36:37Z</time>
      </trkpt>
      <trkpt lat="44.97485" lon="4.51282">
        <ele>587</ele>
        <time>2015-11-23T08:36:49Z</time>
      </trkpt>
      <trkpt lat="44.97492" lon="4.51279">
        <ele>588</ele>
        <time>2015-11-23T08:36:53Z</time>
      </trkpt>
      <trkpt lat="44.97491" lon="4.51269">
        <ele>592</ele>
        <time>2015-11-23T08:37:02Z</time>
      </trkpt>
      <trkpt lat="44.97491" lon="4.51257">
        <ele>594</ele>
        <time>2015-11-23T08:37:08Z</time>
      </trkpt>
      <trkpt lat="44.97488" lon="4.51247">
        <ele>596</ele>
        <time>2015-11-23T08:37:12Z</time>
      </trkpt>
      <trkpt lat="44.97487" lon="4.51237">
        <ele>597</ele>
        <time>2015-11-23T08:37:15Z</time>
      </trkpt>
      <trkpt lat="44.97486" lon="4.51227">
        <ele>598</ele>
        <time>2015-11-23T08:37:18Z</time>
      </trkpt>
      <trkpt lat="44.97479" lon="4.51216">
        <ele>600</ele>
        <time>2015-11-23T08:37:23Z</time>
      </trkpt>
      <trkpt lat="44.97476" lon="4.51206">
        <ele>601</ele>
        <time>2015-11-23T08:37:27Z</time>
      </trkpt>
      <trkpt lat="44.97468" lon="4.5121">
        <ele>606</ele>
        <time>2015-11-23T08:37:49Z</time>
      </trkpt>
      <trkpt lat="44.97463" lon="4.51204">
        <ele>608</ele>
        <time>2015-11-23T08:37:55Z</time>
      </trkpt>
      <trkpt lat="44.9746" lon="4.51194">
        <ele>607</ele>
        <time>2015-11-23T08:38:00Z</time>
      </trkpt>
      <trkpt lat="44.97458" lon="4.51184">
        <ele>607</ele>
        <time>2015-11-23T08:38:05Z</time>
      </trkpt>
      <trkpt lat="44.97457" lon="4.51174">
        <ele>607</ele>
        <time>2015-11-23T08:38:10Z</time>
      </trkpt>
      <trkpt lat="44.97459" lon="4.51172">
        <ele>607</ele>
        <time>2015-11-23T08:38:25Z</time>
      </trkpt>
      <trkpt lat="44.97446" lon="4.51136">
        <ele>604</ele>
        <time>2015-11-23T08:38:29Z</time>
      </trkpt>
      <trkpt lat="44.97441" lon="4.51126">
        <ele>604</ele>
        <time>2015-11-23T08:38:35Z</time>
      </trkpt>
      <trkpt lat="44.97438" lon="4.51118">
        <ele>603</ele>
        <time>2015-11-23T08:38:38Z</time>
      </trkpt>
      <trkpt lat="44.97436" lon="4.51106">
        <ele>603</ele>
        <time>2015-11-23T08:38:42Z</time>
      </trkpt>
      <trkpt lat="44.97438" lon="4.51091">
        <ele>603</ele>
        <time>2015-11-23T08:38:47Z</time>
      </trkpt>
      <trkpt lat="44.9744" lon="4.5108">
        <ele>603</ele>
        <time>2015-11-23T08:38:51Z</time>
      </trkpt>
      <trkpt lat="44.97441" lon="4.51066">
        <ele>603</ele>
        <time>2015-11-23T08:38:56Z</time>
      </trkpt>
      <trkpt lat="44.97442" lon="4.51052">
        <ele>603</ele>
        <time>2015-11-23T08:39:01Z</time>
      </trkpt>
      <trkpt lat="44.97447" lon="4.51044">
        <ele>603</ele>
        <time>2015-11-23T08:39:04Z</time>
      </trkpt>
      <trkpt lat="44.97451" lon="4.51036">
        <ele>603</ele>
        <time>2015-11-23T08:39:07Z</time>
      </trkpt>
      <trkpt lat="44.9745" lon="4.51027">
        <ele>603</ele>
        <time>2015-11-23T08:39:11Z</time>
      </trkpt>
      <trkpt lat="44.97446" lon="4.51019">
        <ele>603</ele>
        <time>2015-11-23T08:39:15Z</time>
      </trkpt>
      <trkpt lat="44.97442" lon="4.51009">
        <ele>603</ele>
        <time>2015-11-23T08:39:19Z</time>
      </trkpt>
      <trkpt lat="44.97437" lon="4.50996">
        <ele>602</ele>
        <time>2015-11-23T08:39:24Z</time>
      </trkpt>
      <trkpt lat="44.97432" lon="4.5099">
        <ele>601</ele>
        <time>2015-11-23T08:39:27Z</time>
      </trkpt>
      <trkpt lat="44.97425" lon="4.50977">
        <ele>601</ele>
        <time>2015-11-23T08:39:32Z</time>
      </trkpt>
      <trkpt lat="44.97419" lon="4.50968">
        <ele>600</ele>
        <time>2015-11-23T08:39:36Z</time>
      </trkpt>
      <trkpt lat="44.97412" lon="4.50959">
        <ele>600</ele>
        <time>2015-11-23T08:39:41Z</time>
      </trkpt>
      <trkpt lat="44.97406" lon="4.50953">
        <ele>599</ele>
        <time>2015-11-23T08:39:45Z</time>
      </trkpt>
      <trkpt lat="44.974" lon="4.50947">
        <ele>599</ele>
        <time>2015-11-23T08:39:49Z</time>
      </trkpt>
      <trkpt lat="44.97395" lon="4.50942">
        <ele>599</ele>
        <time>2015-11-23T08:39:52Z</time>
      </trkpt>
      <trkpt lat="44.9739" lon="4.50937">
        <ele>598</ele>
        <time>2015-11-23T08:39:55Z</time>
      </trkpt>
      <trkpt lat="44.97385" lon="4.50929">
        <ele>598</ele>
        <time>2015-11-23T08:40:01Z</time>
      </trkpt>
      <trkpt lat="44.97381" lon="4.5092">
        <ele>597</ele>
        <time>2015-11-23T08:40:07Z</time>
      </trkpt>
      <trkpt lat="44.97373" lon="4.50913">
        <ele>596</ele>
        <time>2015-11-23T08:40:15Z</time>
      </trkpt>
      <trkpt lat="44.97367" lon="4.50906">
        <ele>596</ele>
        <time>2015-11-23T08:40:21Z</time>
      </trkpt>
      <trkpt lat="44.97361" lon="4.50901">
        <ele>596</ele>
        <time>2015-11-23T08:40:27Z</time>
      </trkpt>
      <trkpt lat="44.97354" lon="4.50897">
        <ele>596</ele>
        <time>2015-11-23T08:40:36Z</time>
      </trkpt>
      <trkpt lat="44.97346" lon="4.50895">
        <ele>597</ele>
        <time>2015-11-23T08:40:39Z</time>
      </trkpt>
      <trkpt lat="44.97339" lon="4.5089">
        <ele>604</ele>
        <time>2015-11-23T08:40:47Z</time>
      </trkpt>
      <trkpt lat="44.97334" lon="4.50897">
        <ele>608</ele>
        <time>2015-11-23T08:40:53Z</time>
      </trkpt>
      <trkpt lat="44.9733" lon="4.50908">
        <ele>611</ele>
        <time>2015-11-23T08:40:57Z</time>
      </trkpt>
      <trkpt lat="44.97324" lon="4.50913">
        <ele>613</ele>
        <time>2015-11-23T08:41:04Z</time>
      </trkpt>
      <trkpt lat="44.97319" lon="4.50918">
        <ele>615</ele>
        <time>2015-11-23T08:41:08Z</time>
      </trkpt>
      <trkpt lat="44.97318" lon="4.50926">
        <ele>621</ele>
        <time>2015-11-23T08:41:16Z</time>
      </trkpt>
      <trkpt lat="44.97311" lon="4.50914">
        <ele>633</ele>
        <time>2015-11-23T08:41:20Z</time>
      </trkpt>
      <trkpt lat="44.97308" lon="4.50923">
        <ele>644</ele>
        <time>2015-11-23T08:41:26Z</time>
      </trkpt>
      <trkpt lat="44.97303" lon="4.50934">
        <ele>647</ele>
        <time>2015-11-23T08:41:31Z</time>
      </trkpt>
      <trkpt lat="44.97299" lon="4.50942">
        <ele>649</ele>
        <time>2015-11-23T08:41:35Z</time>
      </trkpt>
      <trkpt lat="44.97292" lon="4.50949">
        <ele>651</ele>
        <time>2015-11-23T08:41:41Z</time>
      </trkpt>
      <trkpt lat="44.97285" lon="4.50955">
        <ele>654</ele>
        <time>2015-11-23T08:41:48Z</time>
      </trkpt>
      <trkpt lat="44.97279" lon="4.50959">
        <ele>657</ele>
        <time>2015-11-23T08:42:00Z</time>
      </trkpt>
      <trkpt lat="44.97268" lon="4.50965">
        <ele>665</ele>
        <time>2015-11-23T08:42:05Z</time>
      </trkpt>
      <trkpt lat="44.97263" lon="4.50973">
        <ele>667</ele>
        <time>2015-11-23T08:42:09Z</time>
      </trkpt>
      <trkpt lat="44.97256" lon="4.50981">
        <ele>669</ele>
        <time>2015-11-23T08:42:16Z</time>
      </trkpt>
      <trkpt lat="44.97251" lon="4.50988">
        <ele>671</ele>
        <time>2015-11-23T08:42:22Z</time>
      </trkpt>
      <trkpt lat="44.97245" lon="4.50995">
        <ele>673</ele>
        <time>2015-11-23T08:42:28Z</time>
      </trkpt>
      <trkpt lat="44.97239" lon="4.51001">
        <ele>674</ele>
        <time>2015-11-23T08:42:33Z</time>
      </trkpt>
      <trkpt lat="44.97233" lon="4.51006">
        <ele>676</ele>
        <time>2015-11-23T08:42:39Z</time>
      </trkpt>
      <trkpt lat="44.97229" lon="4.51015">
        <ele>677</ele>
        <time>2015-11-23T08:42:46Z</time>
      </trkpt>
      <trkpt lat="44.97226" lon="4.51022">
        <ele>677</ele>
        <time>2015-11-23T08:42:50Z</time>
      </trkpt>
      <trkpt lat="44.97221" lon="4.51036">
        <ele>678</ele>
        <time>2015-11-23T08:42:55Z</time>
      </trkpt>
      <trkpt lat="44.97216" lon="4.51044">
        <ele>678</ele>
        <time>2015-11-23T08:42:58Z</time>
      </trkpt>
      <trkpt lat="44.97212" lon="4.51051">
        <ele>678</ele>
        <time>2015-11-23T08:43:04Z</time>
      </trkpt>
      <trkpt lat="44.97198" lon="4.51067">
        <ele>679</ele>
        <time>2015-11-23T08:43:09Z</time>
      </trkpt>
      <trkpt lat="44.9719" lon="4.51073">
        <ele>679</ele>
        <time>2015-11-23T08:43:21Z</time>
      </trkpt>
      <trkpt lat="44.97161" lon="4.51088">
        <ele>680</ele>
        <time>2015-11-23T08:43:25Z</time>
      </trkpt>
      <trkpt lat="44.97155" lon="4.51094">
        <ele>681</ele>
        <time>2015-11-23T08:43:32Z</time>
      </trkpt>
      <trkpt lat="44.97137" lon="4.51103">
        <ele>681</ele>
        <time>2015-11-23T08:43:37Z</time>
      </trkpt>
      <trkpt lat="44.9713" lon="4.51106">
        <ele>682</ele>
        <time>2015-11-23T08:43:41Z</time>
      </trkpt>
      <trkpt lat="44.97121" lon="4.51111">
        <ele>683</ele>
        <time>2015-11-23T08:43:45Z</time>
      </trkpt>
      <trkpt lat="44.97114" lon="4.51115">
        <ele>683</ele>
        <time>2015-11-23T08:43:49Z</time>
      </trkpt>
      <trkpt lat="44.97108" lon="4.51124">
        <ele>683</ele>
        <time>2015-11-23T08:43:53Z</time>
      </trkpt>
      <trkpt lat="44.97101" lon="4.51134">
        <ele>684</ele>
        <time>2015-11-23T08:43:57Z</time>
      </trkpt>
      <trkpt lat="44.97096" lon="4.5114">
        <ele>684</ele>
        <time>2015-11-23T08:44:00Z</time>
      </trkpt>
      <trkpt lat="44.97092" lon="4.5115">
        <ele>684</ele>
        <time>2015-11-23T08:44:04Z</time>
      </trkpt>
      <trkpt lat="44.97087" lon="4.51163">
        <ele>684</ele>
        <time>2015-11-23T08:44:09Z</time>
      </trkpt>
      <trkpt lat="44.9708" lon="4.5117">
        <ele>684</ele>
        <time>2015-11-23T08:44:13Z</time>
      </trkpt>
      <trkpt lat="44.97071" lon="4.51172">
        <ele>685</ele>
        <time>2015-11-23T08:44:17Z</time>
      </trkpt>
      <trkpt lat="44.97064" lon="4.51175">
        <ele>685</ele>
        <time>2015-11-23T08:44:21Z</time>
      </trkpt>
      <trkpt lat="44.97058" lon="4.51181">
        <ele>685</ele>
        <time>2015-11-23T08:44:25Z</time>
      </trkpt>
      <trkpt lat="44.97051" lon="4.51188">
        <ele>686</ele>
        <time>2015-11-23T08:44:32Z</time>
      </trkpt>
      <trkpt lat="44.97045" lon="4.51194">
        <ele>686</ele>
        <time>2015-11-23T08:44:39Z</time>
      </trkpt>
      <trkpt lat="44.97038" lon="4.51197">
        <ele>687</ele>
        <time>2015-11-23T08:44:47Z</time>
      </trkpt>
      <trkpt lat="44.9703" lon="4.51201">
        <ele>687</ele>
        <time>2015-11-23T08:44:53Z</time>
      </trkpt>
      <trkpt lat="44.97023" lon="4.51196">
        <ele>688</ele>
        <time>2015-11-23T08:44:57Z</time>
      </trkpt>
      <trkpt lat="44.97015" lon="4.51195">
        <ele>690</ele>
        <time>2015-11-23T08:45:03Z</time>
      </trkpt>
      <trkpt lat="44.97007" lon="4.51189">
        <ele>692</ele>
        <time>2015-11-23T08:45:18Z</time>
      </trkpt>
      <trkpt lat="44.97003" lon="4.51179">
        <ele>691</ele>
        <time>2015-11-23T08:45:28Z</time>
      </trkpt>
      <trkpt lat="44.96996" lon="4.51172">
        <ele>689</ele>
        <time>2015-11-23T08:45:39Z</time>
      </trkpt>
      <trkpt lat="44.96989" lon="4.51166">
        <ele>690</ele>
        <time>2015-11-23T08:45:45Z</time>
      </trkpt>
      <trkpt lat="44.96981" lon="4.51163">
        <ele>693</ele>
        <time>2015-11-23T08:45:55Z</time>
      </trkpt>
      <trkpt lat="44.96976" lon="4.51155">
        <ele>691</ele>
        <time>2015-11-23T08:46:06Z</time>
      </trkpt>
      <trkpt lat="44.96971" lon="4.51147">
        <ele>691</ele>
        <time>2015-11-23T08:46:13Z</time>
      </trkpt>
      <trkpt lat="44.96964" lon="4.51141">
        <ele>691</ele>
        <time>2015-11-23T08:46:18Z</time>
      </trkpt>
      <trkpt lat="44.96957" lon="4.51138">
        <ele>693</ele>
        <time>2015-11-23T08:46:28Z</time>
      </trkpt>
      <trkpt lat="44.96944" lon="4.51132">
        <ele>702</ele>
        <time>2015-11-23T08:46:32Z</time>
      </trkpt>
      <trkpt lat="44.96952" lon="4.51136">
        <ele>703</ele>
        <time>2015-11-23T08:46:39Z</time>
      </trkpt>
      <trkpt lat="44.96956" lon="4.51139">
        <ele>703</ele>
        <time>2015-11-23T08:46:40Z</time>
      </trkpt>
      <trkpt lat="44.96962" lon="4.51146">
        <ele>702</ele>
        <time>2015-11-23T08:46:45Z</time>
      </trkpt>
      <trkpt lat="44.96963" lon="4.51158">
        <ele>701</ele>
        <time>2015-11-23T08:46:50Z</time>
      </trkpt>
      <trkpt lat="44.96968" lon="4.51166">
        <ele>702</ele>
        <time>2015-11-23T08:47:00Z</time>
      </trkpt>
      <trkpt lat="44.96983" lon="4.51187">
        <ele>702</ele>
        <time>2015-11-23T08:47:04Z</time>
      </trkpt>
      <trkpt lat="44.96985" lon="4.51195">
        <ele>702</ele>
        <time>2015-11-23T08:47:07Z</time>
      </trkpt>
      <trkpt lat="44.96994" lon="4.51205">
        <ele>702</ele>
        <time>2015-11-23T08:47:12Z</time>
      </trkpt>
      <trkpt lat="44.97" lon="4.51212">
        <ele>703</ele>
        <time>2015-11-23T08:47:16Z</time>
      </trkpt>
      <trkpt lat="44.97007" lon="4.51219">
        <ele>704</ele>
        <time>2015-11-23T08:47:21Z</time>
      </trkpt>
      <trkpt lat="44.9701" lon="4.51228">
        <ele>704</ele>
        <time>2015-11-23T08:47:25Z</time>
      </trkpt>
      <trkpt lat="44.97016" lon="4.51238">
        <ele>704</ele>
        <time>2015-11-23T08:47:29Z</time>
      </trkpt>
      <trkpt lat="44.97021" lon="4.51247">
        <ele>705</ele>
        <time>2015-11-23T08:47:33Z</time>
      </trkpt>
      <trkpt lat="44.97027" lon="4.51257">
        <ele>707</ele>
        <time>2015-11-23T08:47:37Z</time>
      </trkpt>
      <trkpt lat="44.97032" lon="4.51267">
        <ele>708</ele>
        <time>2015-11-23T08:47:42Z</time>
      </trkpt>
      <trkpt lat="44.97036" lon="4.51274">
        <ele>709</ele>
        <time>2015-11-23T08:47:46Z</time>
      </trkpt>
      <trkpt lat="44.9704" lon="4.51278">
        <ele>709</ele>
        <time>2015-11-23T08:47:49Z</time>
      </trkpt>
      <trkpt lat="44.97046" lon="4.51286">
        <ele>710</ele>
        <time>2015-11-23T08:47:54Z</time>
      </trkpt>
      <trkpt lat="44.97048" lon="4.51295">
        <ele>711</ele>
        <time>2015-11-23T08:47:58Z</time>
      </trkpt>
      <trkpt lat="44.97049" lon="4.51305">
        <ele>712</ele>
        <time>2015-11-23T08:48:03Z</time>
      </trkpt>
      <trkpt lat="44.97052" lon="4.51313">
        <ele>715</ele>
        <time>2015-11-23T08:48:07Z</time>
      </trkpt>
      <trkpt lat="44.97056" lon="4.51323">
        <ele>716</ele>
        <time>2015-11-23T08:48:13Z</time>
      </trkpt>
      <trkpt lat="44.97057" lon="4.51334">
        <ele>716</ele>
        <time>2015-11-23T08:48:18Z</time>
      </trkpt>
      <trkpt lat="44.97059" lon="4.51339">
        <ele>717</ele>
        <time>2015-11-23T08:48:20Z</time>
      </trkpt>
      <trkpt lat="44.97062" lon="4.51357">
        <ele>722</ele>
        <time>2015-11-23T08:48:25Z</time>
      </trkpt>
      <trkpt lat="44.97064" lon="4.51374">
        <ele>724</ele>
        <time>2015-11-23T08:48:30Z</time>
      </trkpt>
      <trkpt lat="44.97066" lon="4.51384">
        <ele>725</ele>
        <time>2015-11-23T08:48:33Z</time>
      </trkpt>
      <trkpt lat="44.97064" lon="4.51393">
        <ele>726</ele>
        <time>2015-11-23T08:48:37Z</time>
      </trkpt>
      <trkpt lat="44.97062" lon="4.51405">
        <ele>728</ele>
        <time>2015-11-23T08:48:42Z</time>
      </trkpt>
      <trkpt lat="44.97061" lon="4.51413">
        <ele>729</ele>
        <time>2015-11-23T08:48:48Z</time>
      </trkpt>
      <trkpt lat="44.97055" lon="4.5143">
        <ele>730</ele>
        <time>2015-11-23T08:48:53Z</time>
      </trkpt>
      <trkpt lat="44.9706" lon="4.51436">
        <ele>732</ele>
        <time>2015-11-23T08:49:02Z</time>
      </trkpt>
      <trkpt lat="44.97063" lon="4.5144">
        <ele>732</ele>
        <time>2015-11-23T08:49:05Z</time>
      </trkpt>
      <trkpt lat="44.97066" lon="4.51453">
        <ele>732</ele>
        <time>2015-11-23T08:49:09Z</time>
      </trkpt>
      <trkpt lat="44.9707" lon="4.51465">
        <ele>732</ele>
        <time>2015-11-23T08:49:13Z</time>
      </trkpt>
      <trkpt lat="44.97074" lon="4.51476">
        <ele>732</ele>
        <time>2015-11-23T08:49:17Z</time>
      </trkpt>
      <trkpt lat="44.97079" lon="4.51487">
        <ele>732</ele>
        <time>2015-11-23T08:49:21Z</time>
      </trkpt>
      <trkpt lat="44.97085" lon="4.51495">
        <ele>731</ele>
        <time>2015-11-23T08:49:25Z</time>
      </trkpt>
      <trkpt lat="44.97091" lon="4.51504">
        <ele>731</ele>
        <time>2015-11-23T08:49:29Z</time>
      </trkpt>
      <trkpt lat="44.97097" lon="4.51511">
        <ele>730</ele>
        <time>2015-11-23T08:49:33Z</time>
      </trkpt>
      <trkpt lat="44.97104" lon="4.5152">
        <ele>729</ele>
        <time>2015-11-23T08:49:37Z</time>
      </trkpt>
      <trkpt lat="44.9711" lon="4.51526">
        <ele>728</ele>
        <time>2015-11-23T08:49:42Z</time>
      </trkpt>
      <trkpt lat="44.97117" lon="4.51536">
        <ele>726</ele>
        <time>2015-11-23T08:49:47Z</time>
      </trkpt>
      <trkpt lat="44.97121" lon="4.51542">
        <ele>725</ele>
        <time>2015-11-23T08:49:50Z</time>
      </trkpt>
      <trkpt lat="44.97128" lon="4.5155">
        <ele>723</ele>
        <time>2015-11-23T08:49:54Z</time>
      </trkpt>
      <trkpt lat="44.97136" lon="4.51563">
        <ele>720</ele>
        <time>2015-11-23T08:49:59Z</time>
      </trkpt>
      <trkpt lat="44.97142" lon="4.51572">
        <ele>718</ele>
        <time>2015-11-23T08:50:03Z</time>
      </trkpt>
      <trkpt lat="44.97152" lon="4.51583">
        <ele>716</ele>
        <time>2015-11-23T08:50:07Z</time>
      </trkpt>
      <trkpt lat="44.97156" lon="4.51588">
        <ele>714</ele>
        <time>2015-11-23T08:50:11Z</time>
      </trkpt>
      <trkpt lat="44.9716" lon="4.51599">
        <ele>711</ele>
        <time>2015-11-23T08:50:16Z</time>
      </trkpt>
      <trkpt lat="44.97166" lon="4.51613">
        <ele>708</ele>
        <time>2015-11-23T08:50:21Z</time>
      </trkpt>
      <trkpt lat="44.97172" lon="4.51624">
        <ele>706</ele>
        <time>2015-11-23T08:50:25Z</time>
      </trkpt>
      <trkpt lat="44.97176" lon="4.51632">
        <ele>705</ele>
        <time>2015-11-23T08:50:28Z</time>
      </trkpt>
      <trkpt lat="44.97179" lon="4.51643">
        <ele>704</ele>
        <time>2015-11-23T08:50:32Z</time>
      </trkpt>
      <trkpt lat="44.97182" lon="4.51655">
        <ele>701</ele>
        <time>2015-11-23T08:50:36Z</time>
      </trkpt>
      <trkpt lat="44.97185" lon="4.51663">
        <ele>700</ele>
        <time>2015-11-23T08:50:39Z</time>
      </trkpt>
      <trkpt lat="44.97189" lon="4.51678">
        <ele>698</ele>
        <time>2015-11-23T08:50:43Z</time>
      </trkpt>
      <trkpt lat="44.97191" lon="4.51683">
        <ele>697</ele>
        <time>2015-11-23T08:50:45Z</time>
      </trkpt>
      <trkpt lat="44.97192" lon="4.5169">
        <ele>696</ele>
        <time>2015-11-23T08:51:00Z</time>
      </trkpt>
      <trkpt lat="44.97205" lon="4.51747">
        <ele>688</ele>
        <time>2015-11-23T08:51:04Z</time>
      </trkpt>
      <trkpt lat="44.97209" lon="4.51756">
        <ele>686</ele>
        <time>2015-11-23T08:51:06Z</time>
      </trkpt>
      <trkpt lat="44.97212" lon="4.5177">
        <ele>686</ele>
        <time>2015-11-23T08:51:10Z</time>
      </trkpt>
      <trkpt lat="44.97213" lon="4.51778">
        <ele>686</ele>
        <time>2015-11-23T08:51:13Z</time>
      </trkpt>
      <trkpt lat="44.97217" lon="4.5179">
        <ele>686</ele>
        <time>2015-11-23T08:51:18Z</time>
      </trkpt>
      <trkpt lat="44.97219" lon="4.51797">
        <ele>686</ele>
        <time>2015-11-23T08:51:23Z</time>
      </trkpt>
      <trkpt lat="44.97225" lon="4.51817">
        <ele>686</ele>
        <time>2015-11-23T08:51:27Z</time>
      </trkpt>
      <trkpt lat="44.97229" lon="4.51831">
        <ele>686</ele>
        <time>2015-11-23T08:51:31Z</time>
      </trkpt>
      <trkpt lat="44.97234" lon="4.51846">
        <ele>687</ele>
        <time>2015-11-23T08:51:35Z</time>
      </trkpt>
      <trkpt lat="44.97239" lon="4.51859">
        <ele>686</ele>
        <time>2015-11-23T08:51:39Z</time>
      </trkpt>
      <trkpt lat="44.97243" lon="4.51865">
        <ele>686</ele>
        <time>2015-11-23T08:51:42Z</time>
      </trkpt>
      <trkpt lat="44.97251" lon="4.51878">
        <ele>685</ele>
        <time>2015-11-23T08:51:47Z</time>
      </trkpt>
      <trkpt lat="44.97256" lon="4.51884">
        <ele>685</ele>
        <time>2015-11-23T08:51:51Z</time>
      </trkpt>
      <trkpt lat="44.97262" lon="4.51894">
        <ele>683</ele>
        <time>2015-11-23T08:52:00Z</time>
      </trkpt>
      <trkpt lat="44.97277" lon="4.51918">
        <ele>683</ele>
        <time>2015-11-23T08:52:05Z</time>
      </trkpt>
      <trkpt lat="44.9728" lon="4.51931">
        <ele>683</ele>
        <time>2015-11-23T08:52:06Z</time>
      </trkpt>
      <trkpt lat="44.97283" lon="4.51944">
        <ele>684</ele>
        <time>2015-11-23T08:52:10Z</time>
      </trkpt>
      <trkpt lat="44.9729" lon="4.51961">
        <ele>684</ele>
        <time>2015-11-23T08:52:14Z</time>
      </trkpt>
      <trkpt lat="44.97294" lon="4.51969">
        <ele>684</ele>
        <time>2015-11-23T08:52:19Z</time>
      </trkpt>
      <trkpt lat="44.97296" lon="4.51978">
        <ele>684</ele>
        <time>2015-11-23T08:52:19Z</time>
      </trkpt>
      <trkpt lat="44.97301" lon="4.51987">
        <ele>683</ele>
        <time>2015-11-23T08:52:25Z</time>
      </trkpt>
      <trkpt lat="44.97302" lon="4.51997">
        <ele>682</ele>
        <time>2015-11-23T08:52:27Z</time>
      </trkpt>
      <trkpt lat="44.97301" lon="4.52016">
        <ele>683</ele>
        <time>2015-11-23T08:52:33Z</time>
      </trkpt>
      <trkpt lat="44.97302" lon="4.52033">
        <ele>685</ele>
        <time>2015-11-23T08:52:37Z</time>
      </trkpt>
      <trkpt lat="44.97309" lon="4.52038">
        <ele>688</ele>
        <time>2015-11-23T08:52:49Z</time>
      </trkpt>
      <trkpt lat="44.97316" lon="4.52042">
        <ele>690</ele>
        <time>2015-11-23T08:52:58Z</time>
      </trkpt>
      <trkpt lat="44.97322" lon="4.52047">
        <ele>690</ele>
        <time>2015-11-23T08:53:05Z</time>
      </trkpt>
      <trkpt lat="44.97325" lon="4.52056">
        <ele>691</ele>
        <time>2015-11-23T08:53:11Z</time>
      </trkpt>
      <trkpt lat="44.97325" lon="4.52068">
        <ele>691</ele>
        <time>2015-11-23T08:53:16Z</time>
      </trkpt>
      <trkpt lat="44.97323" lon="4.5208">
        <ele>691</ele>
        <time>2015-11-23T08:53:21Z</time>
      </trkpt>
      <trkpt lat="44.9733" lon="4.52089">
        <ele>691</ele>
        <time>2015-11-23T08:53:25Z</time>
      </trkpt>
      <trkpt lat="44.97338" lon="4.52091">
        <ele>690</ele>
        <time>2015-11-23T08:53:29Z</time>
      </trkpt>
      <trkpt lat="44.97349" lon="4.52091">
        <ele>688</ele>
        <time>2015-11-23T08:53:34Z</time>
      </trkpt>
      <trkpt lat="44.97356" lon="4.5209">
        <ele>688</ele>
        <time>2015-11-23T08:53:38Z</time>
      </trkpt>
      <trkpt lat="44.97362" lon="4.52084">
        <ele>687</ele>
        <time>2015-11-23T08:53:41Z</time>
      </trkpt>
      <trkpt lat="44.97368" lon="4.52078">
        <ele>687</ele>
        <time>2015-11-23T08:53:44Z</time>
      </trkpt>
      <trkpt lat="44.97373" lon="4.52068">
        <ele>686</ele>
        <time>2015-11-23T08:53:48Z</time>
      </trkpt>
      <trkpt lat="44.97378" lon="4.5206">
        <ele>685</ele>
        <time>2015-11-23T08:53:51Z</time>
      </trkpt>
      <trkpt lat="44.97385" lon="4.5205">
        <ele>684</ele>
        <time>2015-11-23T08:53:55Z</time>
      </trkpt>
      <trkpt lat="44.97393" lon="4.52041">
        <ele>684</ele>
        <time>2015-11-23T08:53:59Z</time>
      </trkpt>
      <trkpt lat="44.97399" lon="4.52032">
        <ele>683</ele>
        <time>2015-11-23T08:54:03Z</time>
      </trkpt>
      <trkpt lat="44.97406" lon="4.52023">
        <ele>682</ele>
        <time>2015-11-23T08:54:07Z</time>
      </trkpt>
      <trkpt lat="44.97412" lon="4.52015">
        <ele>680</ele>
        <time>2015-11-23T08:54:11Z</time>
      </trkpt>
      <trkpt lat="44.97418" lon="4.52009">
        <ele>679</ele>
        <time>2015-11-23T08:54:16Z</time>
      </trkpt>
      <trkpt lat="44.97431" lon="4.52001">
        <ele>679</ele>
        <time>2015-11-23T08:54:21Z</time>
      </trkpt>
      <trkpt lat="44.97437" lon="4.51995">
        <ele>677</ele>
        <time>2015-11-23T08:54:25Z</time>
      </trkpt>
      <trkpt lat="44.97444" lon="4.51987">
        <ele>675</ele>
        <time>2015-11-23T08:54:30Z</time>
      </trkpt>
      <trkpt lat="44.97455" lon="4.51985">
        <ele>673</ele>
        <time>2015-11-23T08:54:35Z</time>
      </trkpt>
      <trkpt lat="44.97462" lon="4.51985">
        <ele>672</ele>
        <time>2015-11-23T08:54:43Z</time>
      </trkpt>
      <trkpt lat="44.97469" lon="4.51988">
        <ele>672</ele>
        <time>2015-11-23T08:54:49Z</time>
      </trkpt>
      <trkpt lat="44.97476" lon="4.5199">
        <ele>672</ele>
        <time>2015-11-23T08:54:57Z</time>
      </trkpt>
      <trkpt lat="44.97486" lon="4.52">
        <ele>670</ele>
        <time>2015-11-23T08:55:00Z</time>
      </trkpt>
      <trkpt lat="44.97485" lon="4.52011">
        <ele>669</ele>
        <time>2015-11-23T08:55:04Z</time>
      </trkpt>
      <trkpt lat="44.97484" lon="4.52027">
        <ele>669</ele>
        <time>2015-11-23T08:55:09Z</time>
      </trkpt>
      <trkpt lat="44.97482" lon="4.52039">
        <ele>667</ele>
        <time>2015-11-23T08:55:13Z</time>
      </trkpt>
      <trkpt lat="44.9748" lon="4.52052">
        <ele>666</ele>
        <time>2015-11-23T08:55:17Z</time>
      </trkpt>
      <trkpt lat="44.97479" lon="4.52063">
        <ele>665</ele>
        <time>2015-11-23T08:55:20Z</time>
      </trkpt>
      <trkpt lat="44.97477" lon="4.52076">
        <ele>663</ele>
        <time>2015-11-23T08:55:24Z</time>
      </trkpt>
      <trkpt lat="44.97476" lon="4.52087">
        <ele>662</ele>
        <time>2015-11-23T08:55:28Z</time>
      </trkpt>
      <trkpt lat="44.97475" lon="4.52104">
        <ele>661</ele>
        <time>2015-11-23T08:55:33Z</time>
      </trkpt>
      <trkpt lat="44.97473" lon="4.52118">
        <ele>660</ele>
        <time>2015-11-23T08:55:37Z</time>
      </trkpt>
      <trkpt lat="44.97471" lon="4.52131">
        <ele>659</ele>
        <time>2015-11-23T08:55:41Z</time>
      </trkpt>
      <trkpt lat="44.97468" lon="4.52139">
        <ele>659</ele>
        <time>2015-11-23T08:55:44Z</time>
      </trkpt>
      <trkpt lat="44.97467" lon="4.52151">
        <ele>657</ele>
        <time>2015-11-23T08:55:48Z</time>
      </trkpt>
      <trkpt lat="44.97466" lon="4.52159">
        <ele>655</ele>
        <time>2015-11-23T08:55:51Z</time>
      </trkpt>
      <trkpt lat="44.97469" lon="4.5217">
        <ele>653</ele>
        <time>2015-11-23T08:55:55Z</time>
      </trkpt>
      <trkpt lat="44.97474" lon="4.5218">
        <ele>651</ele>
        <time>2015-11-23T08:56:00Z</time>
      </trkpt>
      <trkpt lat="44.9748" lon="4.52188">
        <ele>649</ele>
        <time>2015-11-23T08:56:04Z</time>
      </trkpt>
      <trkpt lat="44.97483" lon="4.52192">
        <ele>648</ele>
        <time>2015-11-23T08:56:06Z</time>
      </trkpt>
      <trkpt lat="44.9749" lon="4.52209">
        <ele>647</ele>
        <time>2015-11-23T08:56:12Z</time>
      </trkpt>
      <trkpt lat="44.97493" lon="4.52223">
        <ele>646</ele>
        <time>2015-11-23T08:56:15Z</time>
      </trkpt>
      <trkpt lat="44.97495" lon="4.52234">
        <ele>644</ele>
        <time>2015-11-23T08:56:19Z</time>
      </trkpt>
      <trkpt lat="44.97496" lon="4.52243">
        <ele>643</ele>
        <time>2015-11-23T08:56:21Z</time>
      </trkpt>
      <trkpt lat="44.97496" lon="4.52259">
        <ele>641</ele>
        <time>2015-11-23T08:56:26Z</time>
      </trkpt>
      <trkpt lat="44.97498" lon="4.52271">
        <ele>639</ele>
        <time>2015-11-23T08:56:31Z</time>
      </trkpt>
      <trkpt lat="44.97506" lon="4.52267">
        <ele>638</ele>
        <time>2015-11-23T08:56:37Z</time>
      </trkpt>
      <trkpt lat="44.97512" lon="4.52261">
        <ele>637</ele>
        <time>2015-11-23T08:56:41Z</time>
      </trkpt>
      <trkpt lat="44.97517" lon="4.52248">
        <ele>634</ele>
        <time>2015-11-23T08:56:46Z</time>
      </trkpt>
      <trkpt lat="44.97524" lon="4.52234">
        <ele>633</ele>
        <time>2015-11-23T08:56:51Z</time>
      </trkpt>
      <trkpt lat="44.9753" lon="4.52223">
        <ele>632</ele>
        <time>2015-11-23T08:56:55Z</time>
      </trkpt>
      <trkpt lat="44.97535" lon="4.52205">
        <ele>631</ele>
        <time>2015-11-23T08:57:00Z</time>
      </trkpt>
      <trkpt lat="44.97539" lon="4.52191">
        <ele>630</ele>
        <time>2015-11-23T08:57:05Z</time>
      </trkpt>
      <trkpt lat="44.97549" lon="4.52176">
        <ele>629</ele>
        <time>2015-11-23T08:57:10Z</time>
      </trkpt>
      <trkpt lat="44.97554" lon="4.52166">
        <ele>629</ele>
        <time>2015-11-23T08:57:13Z</time>
      </trkpt>
      <trkpt lat="44.9756" lon="4.52153">
        <ele>627</ele>
        <time>2015-11-23T08:57:17Z</time>
      </trkpt>
      <trkpt lat="44.97565" lon="4.5214">
        <ele>627</ele>
        <time>2015-11-23T08:57:21Z</time>
      </trkpt>
      <trkpt lat="44.97572" lon="4.52126">
        <ele>626</ele>
        <time>2015-11-23T08:57:25Z</time>
      </trkpt>
      <trkpt lat="44.97574" lon="4.52109">
        <ele>624</ele>
        <time>2015-11-23T08:57:30Z</time>
      </trkpt>
      <trkpt lat="44.9758" lon="4.52093">
        <ele>623</ele>
        <time>2015-11-23T08:57:35Z</time>
      </trkpt>
      <trkpt lat="44.97582" lon="4.52081">
        <ele>622</ele>
        <time>2015-11-23T08:57:39Z</time>
      </trkpt>
      <trkpt lat="44.97584" lon="4.52069">
        <ele>620</ele>
        <time>2015-11-23T08:57:43Z</time>
      </trkpt>
      <trkpt lat="44.97584" lon="4.52058">
        <ele>617</ele>
        <time>2015-11-23T08:57:48Z</time>
      </trkpt>
      <trkpt lat="44.97596" lon="4.52049">
        <ele>614</ele>
        <time>2015-11-23T08:57:52Z</time>
      </trkpt>
      <trkpt lat="44.97612" lon="4.52042">
        <ele>615</ele>
        <time>2015-11-23T08:57:55Z</time>
      </trkpt>
      <trkpt lat="44.97631" lon="4.52039">
        <ele>613</ele>
        <time>2015-11-23T08:58:00Z</time>
      </trkpt>
      <trkpt lat="44.97644" lon="4.52038">
        <ele>612</ele>
        <time>2015-11-23T08:58:04Z</time>
      </trkpt>
      <trkpt lat="44.97661" lon="4.5204">
        <ele>611</ele>
        <time>2015-11-23T08:58:09Z</time>
      </trkpt>
      <trkpt lat="44.97675" lon="4.5204">
        <ele>611</ele>
        <time>2015-11-23T08:58:13Z</time>
      </trkpt>
      <trkpt lat="44.97686" lon="4.52038">
        <ele>610</ele>
        <time>2015-11-23T08:58:17Z</time>
      </trkpt>
      <trkpt lat="44.97711" lon="4.52048">
        <ele>607</ele>
        <time>2015-11-23T08:58:26Z</time>
      </trkpt>
      <trkpt lat="44.97716" lon="4.52048">
        <ele>605</ele>
        <time>2015-11-23T08:58:28Z</time>
      </trkpt>
      <trkpt lat="44.97742" lon="4.52062">
        <ele>603</ele>
        <time>2015-11-23T08:58:39Z</time>
      </trkpt>
      <trkpt lat="44.97752" lon="4.52072">
        <ele>603</ele>
        <time>2015-11-23T08:58:45Z</time>
      </trkpt>
      <trkpt lat="44.9776" lon="4.52082">
        <ele>600</ele>
        <time>2015-11-23T08:58:50Z</time>
      </trkpt>
      <trkpt lat="44.97765" lon="4.52085">
        <ele>599</ele>
        <time>2015-11-23T08:58:53Z</time>
      </trkpt>
      <trkpt lat="44.97772" lon="4.5209">
        <ele>596</ele>
        <time>2015-11-23T08:58:57Z</time>
      </trkpt>
      <trkpt lat="44.9778" lon="4.52099">
        <ele>595</ele>
        <time>2015-11-23T08:59:01Z</time>
      </trkpt>
      <trkpt lat="44.97791" lon="4.521">
        <ele>593</ele>
        <time>2015-11-23T08:59:06Z</time>
      </trkpt>
      <trkpt lat="44.97801" lon="4.521">
        <ele>591</ele>
        <time>2015-11-23T08:59:10Z</time>
      </trkpt>
      <trkpt lat="44.97812" lon="4.52104">
        <ele>587</ele>
        <time>2015-11-23T08:59:15Z</time>
      </trkpt>
      <trkpt lat="44.9782" lon="4.52104">
        <ele>585</ele>
        <time>2015-11-23T08:59:19Z</time>
      </trkpt>
      <trkpt lat="44.97827" lon="4.52108">
        <ele>582</ele>
        <time>2015-11-23T08:59:23Z</time>
      </trkpt>
      <trkpt lat="44.97837" lon="4.52117">
        <ele>580</ele>
        <time>2015-11-23T08:59:27Z</time>
      </trkpt>
      <trkpt lat="44.97846" lon="4.52119">
        <ele>578</ele>
        <time>2015-11-23T08:59:31Z</time>
      </trkpt>
      <trkpt lat="44.97854" lon="4.52126">
        <ele>576</ele>
        <time>2015-11-23T08:59:35Z</time>
      </trkpt>
      <trkpt lat="44.9786" lon="4.52129">
        <ele>574</ele>
        <time>2015-11-23T08:59:38Z</time>
      </trkpt>
      <trkpt lat="44.97864" lon="4.52131">
        <ele>572</ele>
        <time>2015-11-23T08:59:41Z</time>
      </trkpt>
      <trkpt lat="44.97871" lon="4.52141">
        <ele>572</ele>
        <time>2015-11-23T08:59:45Z</time>
      </trkpt>
      <trkpt lat="44.97879" lon="4.52144">
        <ele>571</ele>
        <time>2015-11-23T08:59:50Z</time>
      </trkpt>
      <trkpt lat="44.97887" lon="4.52149">
        <ele>570</ele>
        <time>2015-11-23T08:59:54Z</time>
      </trkpt>
      <trkpt lat="44.97895" lon="4.52148">
        <ele>569</ele>
        <time>2015-11-23T09:00:00Z</time>
      </trkpt>
      <trkpt lat="44.979" lon="4.52156">
        <ele>569</ele>
        <time>2015-11-23T09:00:06Z</time>
      </trkpt>
      <trkpt lat="44.97906" lon="4.52158">
        <ele>568</ele>
        <time>2015-11-23T09:00:11Z</time>
      </trkpt>
      <trkpt lat="44.97913" lon="4.52162">
        <ele>569</ele>
        <time>2015-11-23T09:00:16Z</time>
      </trkpt>
      <trkpt lat="44.97921" lon="4.52166">
        <ele>571</ele>
        <time>2015-11-23T09:00:21Z</time>
      </trkpt>
      <trkpt lat="44.97927" lon="4.52175">
        <ele>573</ele>
        <time>2015-11-23T09:00:25Z</time>
      </trkpt>
      <trkpt lat="44.97932" lon="4.52181">
        <ele>574</ele>
        <time>2015-11-23T09:00:28Z</time>
      </trkpt>
      <trkpt lat="44.97956" lon="4.52193">
        <ele>578</ele>
        <time>2015-11-23T09:00:46Z</time>
      </trkpt>
      <trkpt lat="44.97981" lon="4.52208">
        <ele>575</ele>
        <time>2015-11-23T09:00:51Z</time>
      </trkpt>
      <trkpt lat="44.97986" lon="4.52214">
        <ele>575</ele>
        <time>2015-11-23T09:00:54Z</time>
      </trkpt>
      <trkpt lat="44.97994" lon="4.52225">
        <ele>574</ele>
        <time>2015-11-23T09:00:59Z</time>
      </trkpt>
      <trkpt lat="44.98003" lon="4.52235">
        <ele>574</ele>
        <time>2015-11-23T09:01:04Z</time>
      </trkpt>
      <trkpt lat="44.98008" lon="4.5224">
        <ele>574</ele>
        <time>2015-11-23T09:01:07Z</time>
      </trkpt>
      <trkpt lat="44.9802" lon="4.52246">
        <ele>573</ele>
        <time>2015-11-23T09:01:12Z</time>
      </trkpt>
      <trkpt lat="44.98031" lon="4.52251">
        <ele>573</ele>
        <time>2015-11-23T09:01:17Z</time>
      </trkpt>
      <trkpt lat="44.98043" lon="4.52256">
        <ele>573</ele>
        <time>2015-11-23T09:01:22Z</time>
      </trkpt>
      <trkpt lat="44.98048" lon="4.52267">
        <ele>572</ele>
        <time>2015-11-23T09:01:28Z</time>
      </trkpt>
      <trkpt lat="44.98057" lon="4.52271">
        <ele>572</ele>
        <time>2015-11-23T09:01:31Z</time>
      </trkpt>
      <trkpt lat="44.98066" lon="4.52276">
        <ele>573</ele>
        <time>2015-11-23T09:01:36Z</time>
      </trkpt>
      <trkpt lat="44.98072" lon="4.52275">
        <ele>571</ele>
        <time>2015-11-23T09:01:41Z</time>
      </trkpt>
      <trkpt lat="44.98082" lon="4.52271">
        <ele>569</ele>
        <time>2015-11-23T09:01:45Z</time>
      </trkpt>
      <trkpt lat="44.98087" lon="4.52266">
        <ele>568</ele>
        <time>2015-11-23T09:01:48Z</time>
      </trkpt>
      <trkpt lat="44.98095" lon="4.52259">
        <ele>566</ele>
        <time>2015-11-23T09:01:53Z</time>
      </trkpt>
      <trkpt lat="44.98099" lon="4.52253">
        <ele>565</ele>
        <time>2015-11-23T09:01:57Z</time>
      </trkpt>
      <trkpt lat="44.98104" lon="4.52241">
        <ele>563</ele>
        <time>2015-11-23T09:02:02Z</time>
      </trkpt>
      <trkpt lat="44.98106" lon="4.52229">
        <ele>561</ele>
        <time>2015-11-23T09:02:06Z</time>
      </trkpt>
      <trkpt lat="44.98108" lon="4.52216">
        <ele>559</ele>
        <time>2015-11-23T09:02:10Z</time>
      </trkpt>
      <trkpt lat="44.98113" lon="4.52201">
        <ele>557</ele>
        <time>2015-11-23T09:02:14Z</time>
      </trkpt>
      <trkpt lat="44.98119" lon="4.5219">
        <ele>555</ele>
        <time>2015-11-23T09:02:19Z</time>
      </trkpt>
      <trkpt lat="44.98121" lon="4.52177">
        <ele>553</ele>
        <time>2015-11-23T09:02:23Z</time>
      </trkpt>
      <trkpt lat="44.98133" lon="4.52163">
        <ele>556</ele>
        <time>2015-11-23T09:02:27Z</time>
      </trkpt>
      <trkpt lat="44.98143" lon="4.5215">
        <ele>559</ele>
        <time>2015-11-23T09:02:31Z</time>
      </trkpt>
      <trkpt lat="44.98151" lon="4.52136">
        <ele>561</ele>
        <time>2015-11-23T09:02:35Z</time>
      </trkpt>
      <trkpt lat="44.98156" lon="4.52122">
        <ele>561</ele>
        <time>2015-11-23T09:02:39Z</time>
      </trkpt>
      <trkpt lat="44.98161" lon="4.52106">
        <ele>560</ele>
        <time>2015-11-23T09:02:44Z</time>
      </trkpt>
      <trkpt lat="44.98163" lon="4.52092">
        <ele>558</ele>
        <time>2015-11-23T09:02:48Z</time>
      </trkpt>
      <trkpt lat="44.98163" lon="4.52081">
        <ele>558</ele>
        <time>2015-11-23T09:02:52Z</time>
      </trkpt>
      <trkpt lat="44.98166" lon="4.52068">
        <ele>557</ele>
        <time>2015-11-23T09:02:57Z</time>
      </trkpt>
      <trkpt lat="44.9817" lon="4.52055">
        <ele>556</ele>
        <time>2015-11-23T09:03:01Z</time>
      </trkpt>
      <trkpt lat="44.98176" lon="4.52046">
        <ele>554</ele>
        <time>2015-11-23T09:03:05Z</time>
      </trkpt>
      <trkpt lat="44.98183" lon="4.52036">
        <ele>552</ele>
        <time>2015-11-23T09:03:09Z</time>
      </trkpt>
      <trkpt lat="44.98191" lon="4.52027">
        <ele>551</ele>
        <time>2015-11-23T09:03:13Z</time>
      </trkpt>
      <trkpt lat="44.98201" lon="4.52019">
        <ele>550</ele>
        <time>2015-11-23T09:03:17Z</time>
      </trkpt>
      <trkpt lat="44.98207" lon="4.52012">
        <ele>549</ele>
        <time>2015-11-23T09:03:21Z</time>
      </trkpt>
      <trkpt lat="44.98214" lon="4.52001">
        <ele>548</ele>
        <time>2015-11-23T09:03:25Z</time>
      </trkpt>
      <trkpt lat="44.9822" lon="4.51991">
        <ele>547</ele>
        <time>2015-11-23T09:03:30Z</time>
      </trkpt>
      <trkpt lat="44.98221" lon="4.51981">
        <ele>546</ele>
        <time>2015-11-23T09:03:34Z</time>
      </trkpt>
      <trkpt lat="44.98223" lon="4.51969">
        <ele>544</ele>
        <time>2015-11-23T09:03:39Z</time>
      </trkpt>
      <trkpt lat="44.98234" lon="4.51959">
        <ele>548</ele>
        <time>2015-11-23T09:03:43Z</time>
      </trkpt>
      <trkpt lat="44.98244" lon="4.51943">
        <ele>549</ele>
        <time>2015-11-23T09:03:48Z</time>
      </trkpt>
      <trkpt lat="44.98254" lon="4.51942">
        <ele>551</ele>
        <time>2015-11-23T09:03:52Z</time>
      </trkpt>
      <trkpt lat="44.98263" lon="4.51947">
        <ele>553</ele>
        <time>2015-11-23T09:03:56Z</time>
      </trkpt>
      <trkpt lat="44.98272" lon="4.51955">
        <ele>553</ele>
        <time>2015-11-23T09:04:01Z</time>
      </trkpt>
      <trkpt lat="44.9828" lon="4.5196">
        <ele>553</ele>
        <time>2015-11-23T09:04:07Z</time>
      </trkpt>
      <trkpt lat="44.98285" lon="4.51968">
        <ele>552</ele>
        <time>2015-11-23T09:04:11Z</time>
      </trkpt>
      <trkpt lat="44.98291" lon="4.51978">
        <ele>551</ele>
        <time>2015-11-23T09:04:16Z</time>
      </trkpt>
      <trkpt lat="44.98293" lon="4.51989">
        <ele>549</ele>
        <time>2015-11-23T09:04:20Z</time>
      </trkpt>
      <trkpt lat="44.98294" lon="4.51996">
        <ele>548</ele>
        <time>2015-11-23T09:04:26Z</time>
      </trkpt>
      <trkpt lat="44.98294" lon="4.52017">
        <ele>544</ele>
        <time>2015-11-23T09:04:30Z</time>
      </trkpt>
      <trkpt lat="44.98293" lon="4.52022">
        <ele>543</ele>
        <time>2015-11-23T09:04:32Z</time>
      </trkpt>
      <trkpt lat="44.98286" lon="4.5204">
        <ele>539</ele>
        <time>2015-11-23T09:04:45Z</time>
      </trkpt>
      <trkpt lat="44.98282" lon="4.52066">
        <ele>536</ele>
        <time>2015-11-23T09:04:50Z</time>
      </trkpt>
      <trkpt lat="44.98286" lon="4.52075">
        <ele>536</ele>
        <time>2015-11-23T09:04:54Z</time>
      </trkpt>
      <trkpt lat="44.98289" lon="4.52086">
        <ele>536</ele>
        <time>2015-11-23T09:04:59Z</time>
      </trkpt>
      <trkpt lat="44.98296" lon="4.52101">
        <ele>535</ele>
        <time>2015-11-23T09:05:03Z</time>
      </trkpt>
      <trkpt lat="44.983" lon="4.52111">
        <ele>535</ele>
        <time>2015-11-23T09:05:06Z</time>
      </trkpt>
      <trkpt lat="44.98305" lon="4.52121">
        <ele>534</ele>
        <time>2015-11-23T09:05:10Z</time>
      </trkpt>
      <trkpt lat="44.98308" lon="4.52149">
        <ele>540</ele>
        <time>2015-11-23T09:05:14Z</time>
      </trkpt>
      <trkpt lat="44.98312" lon="4.52158">
        <ele>542</ele>
        <time>2015-11-23T09:05:30Z</time>
      </trkpt>
      <trkpt lat="44.98319" lon="4.52164">
        <ele>542</ele>
        <time>2015-11-23T09:05:36Z</time>
      </trkpt>
      <trkpt lat="44.98325" lon="4.52171">
        <ele>542</ele>
        <time>2015-11-23T09:05:41Z</time>
      </trkpt>
      <trkpt lat="44.98332" lon="4.52178">
        <ele>542</ele>
        <time>2015-11-23T09:05:45Z</time>
      </trkpt>
      <trkpt lat="44.98339" lon="4.52185">
        <ele>542</ele>
        <time>2015-11-23T09:05:50Z</time>
      </trkpt>
      <trkpt lat="44.98349" lon="4.5219">
        <ele>541</ele>
        <time>2015-11-23T09:05:55Z</time>
      </trkpt>
      <trkpt lat="44.98357" lon="4.52195">
        <ele>540</ele>
        <time>2015-11-23T09:05:59Z</time>
      </trkpt>
      <trkpt lat="44.98364" lon="4.52198">
        <ele>539</ele>
        <time>2015-11-23T09:06:03Z</time>
      </trkpt>
      <trkpt lat="44.98371" lon="4.52202">
        <ele>537</ele>
        <time>2015-11-23T09:06:07Z</time>
      </trkpt>
      <trkpt lat="44.98381" lon="4.52205">
        <ele>536</ele>
        <time>2015-11-23T09:06:12Z</time>
      </trkpt>
      <trkpt lat="44.98388" lon="4.52208">
        <ele>535</ele>
        <time>2015-11-23T09:06:22Z</time>
      </trkpt>
      <trkpt lat="44.98418" lon="4.5222">
        <ele>532</ele>
        <time>2015-11-23T09:06:27Z</time>
      </trkpt>
      <trkpt lat="44.98427" lon="4.52226">
        <ele>531</ele>
        <time>2015-11-23T09:06:31Z</time>
      </trkpt>
      <trkpt lat="44.98432" lon="4.52228">
        <ele>530</ele>
        <time>2015-11-23T09:06:44Z</time>
      </trkpt>
      <trkpt lat="44.98452" lon="4.52259">
        <ele>523</ele>
        <time>2015-11-23T09:06:49Z</time>
      </trkpt>
      <trkpt lat="44.98457" lon="4.52267">
        <ele>522</ele>
        <time>2015-11-23T09:06:52Z</time>
      </trkpt>
      <trkpt lat="44.98463" lon="4.52276">
        <ele>522</ele>
        <time>2015-11-23T09:06:55Z</time>
      </trkpt>
      <trkpt lat="44.9847" lon="4.52288">
        <ele>521</ele>
        <time>2015-11-23T09:06:59Z</time>
      </trkpt>
      <trkpt lat="44.98479" lon="4.52303">
        <ele>521</ele>
        <time>2015-11-23T09:07:04Z</time>
      </trkpt>
      <trkpt lat="44.98484" lon="4.52312">
        <ele>520</ele>
        <time>2015-11-23T09:07:07Z</time>
      </trkpt>
      <trkpt lat="44.98491" lon="4.52316">
        <ele>520</ele>
        <time>2015-11-23T09:07:10Z</time>
      </trkpt>
      <trkpt lat="44.98524" lon="4.52307">
        <ele>513</ele>
        <time>2015-11-23T09:07:25Z</time>
      </trkpt>
      <trkpt lat="44.98529" lon="4.52302">
        <ele>511</ele>
        <time>2015-11-23T09:07:30Z</time>
      </trkpt>
      <trkpt lat="44.98541" lon="4.5229">
        <ele>504</ele>
        <time>2015-11-23T09:07:35Z</time>
      </trkpt>
      <trkpt lat="44.98548" lon="4.52285">
        <ele>501</ele>
        <time>2015-11-23T09:07:39Z</time>
      </trkpt>
      <trkpt lat="44.98555" lon="4.52282">
        <ele>499</ele>
        <time>2015-11-23T09:07:45Z</time>
      </trkpt>
      <trkpt lat="44.98565" lon="4.52279">
        <ele>496</ele>
        <time>2015-11-23T09:07:47Z</time>
      </trkpt>
      <trkpt lat="44.98575" lon="4.52277">
        <ele>497</ele>
        <time>2015-11-23T09:07:51Z</time>
      </trkpt>
      <trkpt lat="44.98585" lon="4.52273">
        <ele>498</ele>
        <time>2015-11-23T09:07:54Z</time>
      </trkpt>
      <trkpt lat="44.98589" lon="4.52273">
        <ele>498</ele>
        <time>2015-11-23T09:07:57Z</time>
      </trkpt>
      <trkpt lat="44.98601" lon="4.52278">
        <ele>496</ele>
        <time>2015-11-23T09:08:01Z</time>
      </trkpt>
      <trkpt lat="44.98613" lon="4.52282">
        <ele>494</ele>
        <time>2015-11-23T09:08:06Z</time>
      </trkpt>
      <trkpt lat="44.98626" lon="4.52289">
        <ele>494</ele>
        <time>2015-11-23T09:08:11Z</time>
      </trkpt>
      <trkpt lat="44.98636" lon="4.52296">
        <ele>494</ele>
        <time>2015-11-23T09:08:15Z</time>
      </trkpt>
      <trkpt lat="44.98644" lon="4.52305">
        <ele>494</ele>
        <time>2015-11-23T09:08:19Z</time>
      </trkpt>
      <trkpt lat="44.98651" lon="4.52312">
        <ele>493</ele>
        <time>2015-11-23T09:08:23Z</time>
      </trkpt>
      <trkpt lat="44.98657" lon="4.52318">
        <ele>491</ele>
        <time>2015-11-23T09:08:28Z</time>
      </trkpt>
      <trkpt lat="44.9866" lon="4.5233">
        <ele>489</ele>
        <time>2015-11-23T09:08:33Z</time>
      </trkpt>
      <trkpt lat="44.98657" lon="4.52339">
        <ele>486</ele>
        <time>2015-11-23T09:08:36Z</time>
      </trkpt>
      <trkpt lat="44.98655" lon="4.52348">
        <ele>484</ele>
        <time>2015-11-23T09:08:40Z</time>
      </trkpt>
      <trkpt lat="44.98651" lon="4.52359">
        <ele>480</ele>
        <time>2015-11-23T09:08:45Z</time>
      </trkpt>
      <trkpt lat="44.98645" lon="4.52377">
        <ele>476</ele>
        <time>2015-11-23T09:08:49Z</time>
      </trkpt>
      <trkpt lat="44.98643" lon="4.52389">
        <ele>473</ele>
        <time>2015-11-23T09:08:54Z</time>
      </trkpt>
      <trkpt lat="44.98651" lon="4.52395">
        <ele>469</ele>
        <time>2015-11-23T09:09:00Z</time>
      </trkpt>
      <trkpt lat="44.98656" lon="4.52399">
        <ele>467</ele>
        <time>2015-11-23T09:09:04Z</time>
      </trkpt>
      <trkpt lat="44.98667" lon="4.52405">
        <ele>464</ele>
        <time>2015-11-23T09:09:09Z</time>
      </trkpt>
      <trkpt lat="44.98676" lon="4.52411">
        <ele>462</ele>
        <time>2015-11-23T09:09:13Z</time>
      </trkpt>
      <trkpt lat="44.98683" lon="4.52418">
        <ele>461</ele>
        <time>2015-11-23T09:09:16Z</time>
      </trkpt>
      <trkpt lat="44.98692" lon="4.52428">
        <ele>459</ele>
        <time>2015-11-23T09:09:20Z</time>
      </trkpt>
      <trkpt lat="44.98702" lon="4.5244">
        <ele>458</ele>
        <time>2015-11-23T09:09:25Z</time>
      </trkpt>
      <trkpt lat="44.98709" lon="4.52448">
        <ele>456</ele>
        <time>2015-11-23T09:09:30Z</time>
      </trkpt>
      <trkpt lat="44.9872" lon="4.52469">
        <ele>453</ele>
        <time>2015-11-23T09:09:34Z</time>
      </trkpt>
      <trkpt lat="44.98725" lon="4.52484">
        <ele>452</ele>
        <time>2015-11-23T09:09:39Z</time>
      </trkpt>
      <trkpt lat="44.98731" lon="4.5252">
        <ele>456</ele>
        <time>2015-11-23T09:09:44Z</time>
      </trkpt>
      <trkpt lat="44.98722" lon="4.52535">
        <ele>460</ele>
        <time>2015-11-23T09:09:48Z</time>
      </trkpt>
      <trkpt lat="44.98723" lon="4.5252">
        <ele>462</ele>
        <time>2015-11-23T09:09:53Z</time>
      </trkpt>
      <trkpt lat="44.9872" lon="4.52505">
        <ele>462</ele>
        <time>2015-11-23T09:09:57Z</time>
      </trkpt>
      <trkpt lat="44.98715" lon="4.52495">
        <ele>462</ele>
        <time>2015-11-23T09:10:00Z</time>
      </trkpt>
      <trkpt lat="44.9871" lon="4.52482">
        <ele>461</ele>
        <time>2015-11-23T09:10:04Z</time>
      </trkpt>
      <trkpt lat="44.98707" lon="4.52472">
        <ele>461</ele>
        <time>2015-11-23T09:10:07Z</time>
      </trkpt>
      <trkpt lat="44.98703" lon="4.52457">
        <ele>461</ele>
        <time>2015-11-23T09:10:11Z</time>
      </trkpt>
      <trkpt lat="44.98704" lon="4.52439">
        <ele>461</ele>
        <time>2015-11-23T09:10:15Z</time>
      </trkpt>
      <trkpt lat="44.98712" lon="4.52422">
        <ele>462</ele>
        <time>2015-11-23T09:10:19Z</time>
      </trkpt>
      <trkpt lat="44.98723" lon="4.52415">
        <ele>461</ele>
        <time>2015-11-23T09:10:24Z</time>
      </trkpt>
      <trkpt lat="44.98731" lon="4.52406">
        <ele>460</ele>
        <time>2015-11-23T09:10:28Z</time>
      </trkpt>
      <trkpt lat="44.98738" lon="4.52392">
        <ele>461</ele>
        <time>2015-11-23T09:10:33Z</time>
      </trkpt>
      <trkpt lat="44.98739" lon="4.5239">
        <ele>462</ele>
        <time>2015-11-23T09:10:34Z</time>
      </trkpt>
      <trkpt lat="44.98744" lon="4.52377">
        <ele>465</ele>
        <time>2015-11-23T09:10:39Z</time>
      </trkpt>
      <trkpt lat="44.98749" lon="4.52363">
        <ele>467</ele>
        <time>2015-11-23T09:10:42Z</time>
      </trkpt>
      <trkpt lat="44.98754" lon="4.52348">
        <ele>467</ele>
        <time>2015-11-23T09:10:47Z</time>
      </trkpt>
      <trkpt lat="44.9876" lon="4.5234">
        <ele>468</ele>
        <time>2015-11-23T09:10:50Z</time>
      </trkpt>
      <trkpt lat="44.98775" lon="4.5233">
        <ele>467</ele>
        <time>2015-11-23T09:11:00Z</time>
      </trkpt>
      <trkpt lat="44.98789" lon="4.52322">
        <ele>466</ele>
        <time>2015-11-23T09:11:02Z</time>
      </trkpt>
      <trkpt lat="44.988" lon="4.52314">
        <ele>467</ele>
        <time>2015-11-23T09:11:06Z</time>
      </trkpt>
      <trkpt lat="44.98806" lon="4.52304">
        <ele>465</ele>
        <time>2015-11-23T09:11:10Z</time>
      </trkpt>
      <trkpt lat="44.98806" lon="4.52288">
        <ele>464</ele>
        <time>2015-11-23T09:11:15Z</time>
      </trkpt>
      <trkpt lat="44.98806" lon="4.52275">
        <ele>461</ele>
        <time>2015-11-23T09:11:19Z</time>
      </trkpt>
      <trkpt lat="44.98808" lon="4.52261">
        <ele>460</ele>
        <time>2015-11-23T09:11:23Z</time>
      </trkpt>
      <trkpt lat="44.98809" lon="4.52248">
        <ele>459</ele>
        <time>2015-11-23T09:11:28Z</time>
      </trkpt>
      <trkpt lat="44.98811" lon="4.52238">
        <ele>458</ele>
        <time>2015-11-23T09:11:33Z</time>
      </trkpt>
      <trkpt lat="44.98814" lon="4.52228">
        <ele>457</ele>
        <time>2015-11-23T09:11:38Z</time>
      </trkpt>
      <trkpt lat="44.98822" lon="4.52223">
        <ele>454</ele>
        <time>2015-11-23T09:11:46Z</time>
      </trkpt>
      <trkpt lat="44.98826" lon="4.5222">
        <ele>453</ele>
        <time>2015-11-23T09:11:51Z</time>
      </trkpt>
      <trkpt lat="44.98832" lon="4.52217">
        <ele>452</ele>
        <time>2015-11-23T09:11:54Z</time>
      </trkpt>
      <trkpt lat="44.98841" lon="4.52216">
        <ele>453</ele>
        <time>2015-11-23T09:11:58Z</time>
      </trkpt>
      <trkpt lat="44.98849" lon="4.52214">
        <ele>452</ele>
        <time>2015-11-23T09:12:02Z</time>
      </trkpt>
      <trkpt lat="44.98855" lon="4.52214">
        <ele>452</ele>
        <time>2015-11-23T09:12:06Z</time>
      </trkpt>
      <trkpt lat="44.98865" lon="4.52214">
        <ele>452</ele>
        <time>2015-11-23T09:12:11Z</time>
      </trkpt>
      <trkpt lat="44.98871" lon="4.52213">
        <ele>453</ele>
        <time>2015-11-23T09:12:15Z</time>
      </trkpt>
      <trkpt lat="44.98879" lon="4.52209">
        <ele>453</ele>
        <time>2015-11-23T09:12:22Z</time>
      </trkpt>
      <trkpt lat="44.98886" lon="4.52204">
        <ele>452</ele>
        <time>2015-11-23T09:12:27Z</time>
      </trkpt>
      <trkpt lat="44.98891" lon="4.52199">
        <ele>452</ele>
        <time>2015-11-23T09:12:31Z</time>
      </trkpt>
      <trkpt lat="44.98897" lon="4.52196">
        <ele>451</ele>
        <time>2015-11-23T09:12:35Z</time>
      </trkpt>
      <trkpt lat="44.98904" lon="4.52194">
        <ele>451</ele>
        <time>2015-11-23T09:12:39Z</time>
      </trkpt>
      <trkpt lat="44.98911" lon="4.5219">
        <ele>450</ele>
        <time>2015-11-23T09:12:44Z</time>
      </trkpt>
      <trkpt lat="44.98919" lon="4.52184">
        <ele>449</ele>
        <time>2015-11-23T09:12:52Z</time>
      </trkpt>
      <trkpt lat="44.98923" lon="4.5218">
        <ele>448</ele>
        <time>2015-11-23T09:12:57Z</time>
      </trkpt>
      <trkpt lat="44.98929" lon="4.52176">
        <ele>447</ele>
        <time>2015-11-23T09:13:00Z</time>
      </trkpt>
      <trkpt lat="44.98936" lon="4.5217">
        <ele>446</ele>
        <time>2015-11-23T09:13:07Z</time>
      </trkpt>
      <trkpt lat="44.9894" lon="4.52167">
        <ele>445</ele>
        <time>2015-11-23T09:13:18Z</time>
      </trkpt>
      <trkpt lat="44.98951" lon="4.52158">
        <ele>442</ele>
        <time>2015-11-23T09:13:20Z</time>
      </trkpt>
      <trkpt lat="44.98958" lon="4.52154">
        <ele>441</ele>
        <time>2015-11-23T09:13:26Z</time>
      </trkpt>
      <trkpt lat="44.98965" lon="4.52147">
        <ele>440</ele>
        <time>2015-11-23T09:13:32Z</time>
      </trkpt>
      <trkpt lat="44.98971" lon="4.52142">
        <ele>440</ele>
        <time>2015-11-23T09:13:37Z</time>
      </trkpt>
      <trkpt lat="44.98974" lon="4.52139">
        <ele>440</ele>
        <time>2015-11-23T09:13:39Z</time>
      </trkpt>
      <trkpt lat="44.98982" lon="4.52136">
        <ele>439</ele>
        <time>2015-11-23T09:13:46Z</time>
      </trkpt>
      <trkpt lat="44.98991" lon="4.52133">
        <ele>437</ele>
        <time>2015-11-23T09:13:51Z</time>
      </trkpt>
      <trkpt lat="44.98999" lon="4.52131">
        <ele>436</ele>
        <time>2015-11-23T09:13:56Z</time>
      </trkpt>
      <trkpt lat="44.99007" lon="4.52128">
        <ele>434</ele>
        <time>2015-11-23T09:14:03Z</time>
      </trkpt>
      <trkpt lat="44.99013" lon="4.52123">
        <ele>432</ele>
        <time>2015-11-23T09:14:09Z</time>
      </trkpt>
      <trkpt lat="44.99019" lon="4.52115">
        <ele>430</ele>
        <time>2015-11-23T09:14:16Z</time>
      </trkpt>
      <trkpt lat="44.99022" lon="4.5211">
        <ele>430</ele>
        <time>2015-11-23T09:14:19Z</time>
      </trkpt>
      <trkpt lat="44.99028" lon="4.52103">
        <ele>429</ele>
        <time>2015-11-23T09:14:23Z</time>
      </trkpt>
      <trkpt lat="44.99034" lon="4.52095">
        <ele>426</ele>
        <time>2015-11-23T09:14:31Z</time>
      </trkpt>
      <trkpt lat="44.99038" lon="4.52084">
        <ele>424</ele>
        <time>2015-11-23T09:14:38Z</time>
      </trkpt>
      <trkpt lat="44.99044" lon="4.52076">
        <ele>422</ele>
        <time>2015-11-23T09:14:44Z</time>
      </trkpt>
      <trkpt lat="44.99049" lon="4.52072">
        <ele>420</ele>
        <time>2015-11-23T09:14:48Z</time>
      </trkpt>
      <trkpt lat="44.99055" lon="4.52067">
        <ele>419</ele>
        <time>2015-11-23T09:14:52Z</time>
      </trkpt>
      <trkpt lat="44.99061" lon="4.52062">
        <ele>418</ele>
        <time>2015-11-23T09:14:56Z</time>
      </trkpt>
      <trkpt lat="44.99068" lon="4.52059">
        <ele>416</ele>
        <time>2015-11-23T09:15:01Z</time>
      </trkpt>
      <trkpt lat="44.99074" lon="4.52053">
        <ele>415</ele>
        <time>2015-11-23T09:15:08Z</time>
      </trkpt>
      <trkpt lat="44.99081" lon="4.52046">
        <ele>413</ele>
        <time>2015-11-23T09:15:13Z</time>
      </trkpt>
      <trkpt lat="44.99083" lon="4.52044">
        <ele>413</ele>
        <time>2015-11-23T09:15:15Z</time>
      </trkpt>
      <trkpt lat="44.99094" lon="4.52035">
        <ele>410</ele>
        <time>2015-11-23T09:15:25Z</time>
      </trkpt>
      <trkpt lat="44.99096" lon="4.52034">
        <ele>409</ele>
        <time>2015-11-23T09:15:26Z</time>
      </trkpt>
      <trkpt lat="44.99101" lon="4.52026">
        <ele>407</ele>
        <time>2015-11-23T09:15:36Z</time>
      </trkpt>
      <trkpt lat="44.99112" lon="4.52017">
        <ele>407</ele>
        <time>2015-11-23T09:15:40Z</time>
      </trkpt>
      <trkpt lat="44.99118" lon="4.52009">
        <ele>406</ele>
        <time>2015-11-23T09:15:45Z</time>
      </trkpt>
      <trkpt lat="44.99124" lon="4.52003">
        <ele>406</ele>
        <time>2015-11-23T09:15:49Z</time>
      </trkpt>
      <trkpt lat="44.99131" lon="4.51996">
        <ele>406</ele>
        <time>2015-11-23T09:15:55Z</time>
      </trkpt>
      <trkpt lat="44.99136" lon="4.51987">
        <ele>406</ele>
        <time>2015-11-23T09:16:02Z</time>
      </trkpt>
      <trkpt lat="44.9914" lon="4.51978">
        <ele>406</ele>
        <time>2015-11-23T09:16:07Z</time>
      </trkpt>
      <trkpt lat="44.99144" lon="4.51972">
        <ele>406</ele>
        <time>2015-11-23T09:16:12Z</time>
      </trkpt>
      <trkpt lat="44.99147" lon="4.51969">
        <ele>406</ele>
        <time>2015-11-23T09:16:13Z</time>
      </trkpt>
      <trkpt lat="44.99151" lon="4.51964">
        <ele>407</ele>
        <time>2015-11-23T09:16:24Z</time>
      </trkpt>
      <trkpt lat="44.99162" lon="4.51951">
        <ele>406</ele>
        <time>2015-11-23T09:16:27Z</time>
      </trkpt>
      <trkpt lat="44.99169" lon="4.51942">
        <ele>404</ele>
        <time>2015-11-23T09:16:38Z</time>
      </trkpt>
      <trkpt lat="44.99173" lon="4.51934">
        <ele>403</ele>
        <time>2015-11-23T09:16:41Z</time>
      </trkpt>
      <trkpt lat="44.99178" lon="4.51923">
        <ele>402</ele>
        <time>2015-11-23T09:16:47Z</time>
      </trkpt>
      <trkpt lat="44.99184" lon="4.51915">
        <ele>401</ele>
        <time>2015-11-23T09:16:54Z</time>
      </trkpt>
      <trkpt lat="44.99189" lon="4.5191">
        <ele>400</ele>
        <time>2015-11-23T09:17:00Z</time>
      </trkpt>
      <trkpt lat="44.99193" lon="4.51903">
        <ele>399</ele>
        <time>2015-11-23T09:17:05Z</time>
      </trkpt>
      <trkpt lat="44.99199" lon="4.51894">
        <ele>399</ele>
        <time>2015-11-23T09:17:09Z</time>
      </trkpt>
      <trkpt lat="44.99204" lon="4.51887">
        <ele>399</ele>
        <time>2015-11-23T09:17:13Z</time>
      </trkpt>
      <trkpt lat="44.9921" lon="4.51881">
        <ele>398</ele>
        <time>2015-11-23T09:17:19Z</time>
      </trkpt>
      <trkpt lat="44.99215" lon="4.51875">
        <ele>397</ele>
        <time>2015-11-23T09:17:25Z</time>
      </trkpt>
      <trkpt lat="44.99223" lon="4.51873">
        <ele>396</ele>
        <time>2015-11-23T09:17:31Z</time>
      </trkpt>
      <trkpt lat="44.9923" lon="4.51874">
        <ele>396</ele>
        <time>2015-11-23T09:17:35Z</time>
      </trkpt>
      <trkpt lat="44.99238" lon="4.5188">
        <ele>396</ele>
        <time>2015-11-23T09:17:41Z</time>
      </trkpt>
      <trkpt lat="44.99244" lon="4.51888">
        <ele>395</ele>
        <time>2015-11-23T09:17:46Z</time>
      </trkpt>
      <trkpt lat="44.99251" lon="4.51896">
        <ele>394</ele>
        <time>2015-11-23T09:17:53Z</time>
      </trkpt>
      <trkpt lat="44.99257" lon="4.51901">
        <ele>394</ele>
        <time>2015-11-23T09:17:58Z</time>
      </trkpt>
      <trkpt lat="44.99263" lon="4.51908">
        <ele>393</ele>
        <time>2015-11-23T09:18:05Z</time>
      </trkpt>
      <trkpt lat="44.99269" lon="4.51913">
        <ele>393</ele>
        <time>2015-11-23T09:18:14Z</time>
      </trkpt>
      <trkpt lat="44.99277" lon="4.51915">
        <ele>393</ele>
        <time>2015-11-23T09:18:18Z</time>
      </trkpt>
      <trkpt lat="44.99285" lon="4.5192">
        <ele>394</ele>
        <time>2015-11-23T09:18:23Z</time>
      </trkpt>
      <trkpt lat="44.9929" lon="4.51926">
        <ele>395</ele>
        <time>2015-11-23T09:18:28Z</time>
      </trkpt>
      <trkpt lat="44.99296" lon="4.51934">
        <ele>395</ele>
        <time>2015-11-23T09:18:34Z</time>
      </trkpt>
      <trkpt lat="44.99303" lon="4.5194">
        <ele>395</ele>
        <time>2015-11-23T09:18:43Z</time>
      </trkpt>
      <trkpt lat="44.9931" lon="4.51945">
        <ele>395</ele>
        <time>2015-11-23T09:18:49Z</time>
      </trkpt>
      <trkpt lat="44.99317" lon="4.51948">
        <ele>395</ele>
        <time>2015-11-23T09:18:56Z</time>
      </trkpt>
      <trkpt lat="44.99318" lon="4.51937">
        <ele>395</ele>
        <time>2015-11-23T09:19:11Z</time>
      </trkpt>
      <trkpt lat="44.99317" lon="4.51933">
        <ele>395</ele>
        <time>2015-11-23T09:19:12Z</time>
      </trkpt>
      <trkpt lat="44.99319" lon="4.51911">
        <ele>397</ele>
        <time>2015-11-23T09:19:25Z</time>
      </trkpt>
      <trkpt lat="44.9932" lon="4.519">
        <ele>397</ele>
        <time>2015-11-23T09:19:29Z</time>
      </trkpt>
      <trkpt lat="44.99321" lon="4.51883">
        <ele>397</ele>
        <time>2015-11-23T09:19:37Z</time>
      </trkpt>
      <trkpt lat="44.99319" lon="4.5187">
        <ele>397</ele>
        <time>2015-11-23T09:19:43Z</time>
      </trkpt>
      <trkpt lat="44.99319" lon="4.51861">
        <ele>397</ele>
        <time>2015-11-23T09:19:53Z</time>
      </trkpt>
      <trkpt lat="44.99321" lon="4.51842">
        <ele>398</ele>
        <time>2015-11-23T09:19:57Z</time>
      </trkpt>
      <trkpt lat="44.99321" lon="4.51829">
        <ele>399</ele>
        <time>2015-11-23T09:20:03Z</time>
      </trkpt>
      <trkpt lat="44.99322" lon="4.51818">
        <ele>399</ele>
        <time>2015-11-23T09:20:08Z</time>
      </trkpt>
      <trkpt lat="44.99323" lon="4.51807">
        <ele>400</ele>
        <time>2015-11-23T09:20:17Z</time>
      </trkpt>
      <trkpt lat="44.99323" lon="4.51797">
        <ele>400</ele>
        <time>2015-11-23T09:20:23Z</time>
      </trkpt>
      <trkpt lat="44.99322" lon="4.51789">
        <ele>399</ele>
        <time>2015-11-23T09:20:27Z</time>
      </trkpt>
      <trkpt lat="44.99321" lon="4.51779">
        <ele>400</ele>
        <time>2015-11-23T09:20:32Z</time>
      </trkpt>
      <trkpt lat="44.99321" lon="4.51766">
        <ele>400</ele>
        <time>2015-11-23T09:20:38Z</time>
      </trkpt>
      <trkpt lat="44.99323" lon="4.51755">
        <ele>400</ele>
        <time>2015-11-23T09:20:45Z</time>
      </trkpt>
      <trkpt lat="44.99323" lon="4.51746">
        <ele>400</ele>
        <time>2015-11-23T09:20:54Z</time>
      </trkpt>
      <trkpt lat="44.99326" lon="4.51738">
        <ele>401</ele>
        <time>2015-11-23T09:20:57Z</time>
      </trkpt>
      <trkpt lat="44.99327" lon="4.51725">
        <ele>401</ele>
        <time>2015-11-23T09:21:03Z</time>
      </trkpt>
      <trkpt lat="44.99326" lon="4.51713">
        <ele>402</ele>
        <time>2015-11-23T09:21:09Z</time>
      </trkpt>
      <trkpt lat="44.99327" lon="4.51704">
        <ele>402</ele>
        <time>2015-11-23T09:21:13Z</time>
      </trkpt>
      <trkpt lat="44.99328" lon="4.51692">
        <ele>402</ele>
        <time>2015-11-23T09:21:19Z</time>
      </trkpt>
      <trkpt lat="44.99333" lon="4.51685">
        <ele>404</ele>
        <time>2015-11-23T09:21:31Z</time>
      </trkpt>
      <trkpt lat="44.99341" lon="4.51683">
        <ele>406</ele>
        <time>2015-11-23T09:21:37Z</time>
      </trkpt>
      <trkpt lat="44.99341" lon="4.51683">
        <ele>406</ele>
        <time>2015-11-23T09:21:38Z</time>
      </trkpt>
    </trkseg>
  </trk>
</gpx>